Observation data for Castolon 1NW BBNP on 06/20/2019      Previous  Date       Current Mesonet Observations  Soil Data  Daily Summary Page  Observations in Plain Language
KCA2 200500Z 16002KT 30/17 A2981 RMK A01 T03020174  RH  046%=      5-min Rain = 0
KCA2 200501Z 16002KT 30/18 A2981 RMK A01 T03020175  RH  047%=      5-min Rain = 0
KCA2 200502Z 16002KT 30/18 A2981 RMK A01 T03010178  RH  048%=      5-min Rain = 0
KCA2 200503Z 16002KT 30/18 A2981 RMK A01 T03010177  RH  048%=      5-min Rain = 0
KCA2 200504Z 17002KT 30/18 A2981 RMK A01 T03010177  RH  048%=      5-min Rain = 0
KCA2 200505Z 16002KT 30/18 A2981 RMK A01 T03000178  RH  048%=      5-min Rain = 0
KCA2 200506Z 15001KT 30/18 A2981 RMK A01 T03000181  RH  049%=      5-min Rain = 0
KCA2 200507Z 13000KT 30/18 A2981 RMK A01 T02990182  RH  049%=      5-min Rain = 0
KCA2 200508Z 00000KT 30/18 A2981 RMK A01 T02980180  RH  049%=      5-min Rain = 0
KCA2 200509Z 30000KT 30/18 A2981 RMK A01 T02980182  RH  050%=      5-min Rain = 0
KCA2 200510Z 30001KT 30/18 A2981 RMK A01 T02970182  RH  050%=      5-min Rain = 0
KCA2 200511Z 32001KT 30/18 A2981 RMK A01 T02970183  RH  051%=      5-min Rain = 0
KCA2 200512Z 33002KT 30/18 A2981 RMK A01 T02960182  RH  050%=      5-min Rain = 0
KCA2 200513Z 32002KT 30/18 A2981 RMK A01 T02960183  RH  051%=      5-min Rain = 0
KCA2 200514Z 31001KT 30/18 A2981 RMK A01 T02960184  RH  051%=      5-min Rain = 0
KCA2 200515Z 30001KT 30/18 A2981 RMK A01 T02960184  RH  051%=      5-min Rain = 0
KCA2 200516Z 31001KT 30/19 A2981 RMK A01 T02950185  RH  051%=      5-min Rain = 0
KCA2 200517Z 31001KT 30/18 A2981 RMK A01 T02950181  RH  050%=      5-min Rain = 0
KCA2 200518Z 30001KT 30/18 A2981 RMK A01 T02950177  RH  049%=      5-min Rain = 0
KCA2 200519Z 33001KT 30/17 A2981 RMK A01 T02960174  RH  048%=      5-min Rain = 0
KCA2 200520Z 32000KT 30/17 A2981 RMK A01 T02980173  RH  047%=      5-min Rain = 0
KCA2 200521Z 30000KT 30/17 A2981 RMK A01 T02990173  RH  047%=      5-min Rain = 0
KCA2 200522Z 00000KT 30/17 A2981 RMK A01 T03000174  RH  047%=      5-min Rain = 0
KCA2 200523Z 27000KT 30/18 A2981 RMK A01 T03010177  RH  047%=      5-min Rain = 0
KCA2 200524Z 26000KT 30/18 A2981 RMK A01 T03010178  RH  048%=      5-min Rain = 0
KCA2 200525Z 26001KT 30/18 A2981 RMK A01 T03010182  RH  049%=      5-min Rain = 0
KCA2 200526Z 26001KT 30/19 A2981 RMK A01 T03000192  RH  052%=      5-min Rain = 0
KCA2 200527Z 26002KT 30/19 A2981 RMK A01 T02960193  RH  054%=      5-min Rain = 0
KCA2 200528Z 27002KT 29/19 A2981 RMK A01 T02940193  RH  055%=      5-min Rain = 0
KCA2 200529Z 28002KT 29/20 A2981 RMK A01 T02910195  RH  056%=      5-min Rain = 0
KCA2 200530Z 28002KT 29/20 A2981 RMK A01 T02890197  RH  058%=      5-min Rain = 0
KCA2 200531Z 28002KT 29/20 A2981 RMK A01 T02880198  RH  058%=      5-min Rain = 0
KCA2 200532Z 27002KT 29/20 A2981 RMK A01 T02870197  RH  059%=      5-min Rain = 0
KCA2 200533Z 28002KT 29/20 A2981 RMK A01 T02860197  RH  059%=      5-min Rain = 0
KCA2 200534Z 28002KT 29/20 A2981 RMK A01 T02850197  RH  059%=      5-min Rain = 0
KCA2 200535Z 29002KT 28/20 A2981 RMK A01 T02840198  RH  059%=      5-min Rain = 0
KCA2 200536Z 29002KT 28/19 A2981 RMK A01 T02840193  RH  058%=      5-min Rain = 0
KCA2 200537Z 29002KT 29/19 A2981 RMK A01 T02850189  RH  056%=      5-min Rain = 0
KCA2 200538Z 30002KT 29/19 A2981 RMK A01 T02880186  RH  054%=      5-min Rain = 0
KCA2 200539Z 30002KT 29/19 A2981 RMK A01 T02890189  RH  055%=      5-min Rain = 0
KCA2 200540Z 30002KT 29/19 A2981 RMK A01 T02900188  RH  054%=      5-min Rain = 0
KCA2 200541Z 31002KT 29/19 A2981 RMK A01 T02900186  RH  053%=      5-min Rain = 0
KCA2 200542Z 32002KT 29/18 A2981 RMK A01 T02900183  RH  052%=      5-min Rain = 0
KCA2 200543Z 31002KT 29/18 A2981 RMK A01 T02910183  RH  052%=      5-min Rain = 0
KCA2 200544Z 31002KT 29/18 A2981 RMK A01 T02920181  RH  051%=      5-min Rain = 0
KCA2 200545Z 31002KT 29/18 A2981 RMK A01 T02930177  RH  050%=      5-min Rain = 0
KCA2 200546Z 30002KT 30/18 A2981 RMK A01 T02950176  RH  049%=      5-min Rain = 0
KCA2 200547Z 30002KT 30/18 A2981 RMK A01 T02960177  RH  049%=      5-min Rain = 0
KCA2 200548Z 30002KT 30/18 A2981 RMK A01 T02970178  RH  049%=      5-min Rain = 0
KCA2 200549Z 30002KT 30/18 A2981 RMK A01 T02970179  RH  049%=      5-min Rain = 0
KCA2 200550Z 31002KT 30/18 A2981 RMK A01 T02960182  RH  050%=      5-min Rain = 0
KCA2 200551Z 31002KT 30/19 A2981 RMK A01 T02950188  RH  052%=      5-min Rain = 0
KCA2 200552Z 31003KT 29/20 A2981 RMK A01 T02910196  RH  056%=      5-min Rain = 0
KCA2 200553Z 31003KT 29/20 A2981 RMK A01 T02850196  RH  059%=      5-min Rain = 0
KCA2 200554Z 30003KT 28/20 A2981 RMK A01 T02810199  RH  061%=      5-min Rain = 0
KCA2 200555Z 29003KT 28/20 A2981 RMK A01 T02780201  RH  063%=      5-min Rain = 0
KCA2 200556Z 29003KT 28/20 A2981 RMK A01 T02760199  RH  063%=      5-min Rain = 0
KCA2 200557Z 30003KT 28/20 A2981 RMK A01 T02750200  RH  064%=      5-min Rain = 0
KCA2 200558Z 31004KT 27/20 A2981 RMK A01 T02730197  RH  063%=      5-min Rain = 0
KCA2 200559Z 30004KT 27/20 A2981 RMK A01 T02730196  RH  063%=      5-min Rain = 0
KCA2 200600Z 31003KT 27/19 A2981 RMK A01 T02730193  RH  061%=      5-min Rain = 0
KCA2 200601Z 32004KT 28/19 A2981 RMK A01 T02750191  RH  060%=      5-min Rain = 0
KCA2 200602Z 32004KT 28/19 A2981 RMK A01 T02770189  RH  059%=      5-min Rain = 0
KCA2 200603Z 31004KT 28/19 A2981 RMK A01 T02790189  RH  058%=      5-min Rain = 0
KCA2 200604Z 29003KT 28/19 A2981 RMK A01 T02790188  RH  057%=      5-min Rain = 0
KCA2 200605Z 26004KT 28/19 A2981 RMK A01 T02800192  RH  059%=      5-min Rain = 0
KCA2 200606Z 26004KT 28/19 A2981 RMK A01 T02770190  RH  059%=      5-min Rain = 0
KCA2 200607Z 28004KT 28/19 A2981 RMK A01 T02760186  RH  058%=      5-min Rain = 0
KCA2 200608Z 28004KT 28/19 A2981 RMK A01 T02760185  RH  058%=      5-min Rain = 0
KCA2 200609Z 28003KT 28/18 A2981 RMK A01 T02770184  RH  057%=      5-min Rain = 0
KCA2 200610Z 28003KT 28/18 A2981 RMK A01 T02780184  RH  056%=      5-min Rain = 0
KCA2 200611Z 29004KT 28/18 A2981 RMK A01 T02770181  RH  056%=      5-min Rain = 0
KCA2 200612Z 29004KT 28/18 A2981 RMK A01 T02770181  RH  056%=      5-min Rain = 0
KCA2 200613Z 29005KT 28/18 A2981 RMK A01 T02770180  RH  056%=      5-min Rain = 0
KCA2 200614Z 30004KT 28/18 A2981 RMK A01 T02760181  RH  056%=      5-min Rain = 0
KCA2 200615Z 30004KT 28/18 A2981 RMK A01 T02760182  RH  056%=      5-min Rain = 0
KCA2 200616Z 30004KT 28/18 A2981 RMK A01 T02760182  RH  056%=      5-min Rain = 0
KCA2 200617Z 31003KT 28/18 A2982 RMK A01 T02770182  RH  056%=      5-min Rain = 0
KCA2 200618Z 30004KT 28/18 A2982 RMK A01 T02770177  RH  054%=      5-min Rain = 0
KCA2 200619Z 29004KT 28/18 A2982 RMK A01 T02790177  RH  054%=      5-min Rain = 0
KCA2 200620Z 29005KT 28/18 A2982 RMK A01 T02800177  RH  054%=      5-min Rain = 0
KCA2 200621Z 28005KT 28/18 A2982 RMK A01 T02810176  RH  053%=      5-min Rain = 0
KCA2 200622Z 28004KT 28/18 A2982 RMK A01 T02810177  RH  053%=      5-min Rain = 0
KCA2 200623Z 28004KT 28/18 A2982 RMK A01 T02820177  RH  053%=      5-min Rain = 0
KCA2 200624Z 29004KT 28/18 A2982 RMK A01 T02810176  RH  053%=      5-min Rain = 0
KCA2 200625Z 29005KT 28/17 A2982 RMK A01 T02810174  RH  052%=      5-min Rain = 0
KCA2 200626Z 29004KT 28/17 A2982 RMK A01 T02810173  RH  052%=      5-min Rain = 0
KCA2 200627Z 28003KT 28/17 A2982 RMK A01 T02810173  RH  052%=      5-min Rain = 0
KCA2 200628Z 28004KT 28/17 A2982 RMK A01 T02810172  RH  052%=      5-min Rain = 0
KCA2 200629Z 27003KT 28/17 A2982 RMK A01 T02820172  RH  051%=      5-min Rain = 0
KCA2 200630Z 27002KT 28/17 A2982 RMK A01 T02810172  RH  052%=      5-min Rain = 0
KCA2 200631Z 25002KT 28/17 A2982 RMK A01 T02810173  RH  052%=      5-min Rain = 0
KCA2 200632Z 25001KT 28/18 A2982 RMK A01 T02800175  RH  053%=      5-min Rain = 0
KCA2 200633Z 25002KT 28/18 A2982 RMK A01 T02790177  RH  054%=      5-min Rain = 0
KCA2 200634Z 26002KT 28/17 A2982 RMK A01 T02780173  RH  053%=      5-min Rain = 0
KCA2 200635Z 27002KT 28/17 A2982 RMK A01 T02770172  RH  053%=      5-min Rain = 0
KCA2 200636Z 28002KT 28/17 A2982 RMK A01 T02760172  RH  053%=      5-min Rain = 0
KCA2 200637Z 27002KT 28/17 A2982 RMK A01 T02760171  RH  053%=      5-min Rain = 0
KCA2 200638Z 26002KT 28/17 A2982 RMK A01 T02750172  RH  053%=      5-min Rain = 0
KCA2 200639Z 22001KT 28/17 A2982 RMK A01 T02750174  RH  054%=      5-min Rain = 0
KCA2 200640Z 21001KT 27/18 A2982 RMK A01 T02740178  RH  056%=      5-min Rain = 0
KCA2 200641Z 21001KT 27/18 A2982 RMK A01 T02730181  RH  057%=      5-min Rain = 0
KCA2 200642Z 23002KT 27/18 A2982 RMK A01 T02710179  RH  057%=      5-min Rain = 0
KCA2 200643Z 22003KT 27/18 A2982 RMK A01 T02690178  RH  058%=      5-min Rain = 0
KCA2 200644Z 19003KT 27/18 A2982 RMK A01 T02680180  RH  059%=      5-min Rain = 0
KCA2 200645Z 19002KT 27/18 A2982 RMK A01 T02660180  RH  059%=      5-min Rain = 0
KCA2 200646Z 18002KT 26/18 A2982 RMK A01 T02640179  RH  059%=      5-min Rain = 0
KCA2 200647Z 19003KT 26/18 A2982 RMK A01 T02630178  RH  060%=      5-min Rain = 0
KCA2 200648Z 19003KT 26/18 A2982 RMK A01 T02620181  RH  061%=      5-min Rain = 0
KCA2 200649Z 15003KT 26/18 A2982 RMK A01 T02600180  RH  062%=      5-min Rain = 0
KCA2 200650Z 19002KT 26/18 A2982 RMK A01 T02580178  RH  061%=      5-min Rain = 0
KCA2 200651Z 20003KT 26/18 A2982 RMK A01 T02580175  RH  060%=      5-min Rain = 0
KCA2 200652Z 19002KT 26/17 A2982 RMK A01 T02580174  RH  060%=      5-min Rain = 0
KCA2 200653Z 18002KT 26/17 A2982 RMK A01 T02590172  RH  059%=      5-min Rain = 0
KCA2 200654Z 17003KT 26/17 A2982 RMK A01 T02590174  RH  059%=      5-min Rain = 0
KCA2 200655Z 17004KT 26/17 A2982 RMK A01 T02600172  RH  058%=      5-min Rain = 0
KCA2 200656Z 16004KT 26/17 A2982 RMK A01 T02630172  RH  057%=      5-min Rain = 0
KCA2 200657Z 14003KT 27/17 A2982 RMK A01 T02660172  RH  057%=      5-min Rain = 0
KCA2 200658Z 12003KT 27/18 A2982 RMK A01 T02670178  RH  058%=      5-min Rain = 0
KCA2 200659Z 12003KT 27/18 A2982 RMK A01 T02660178  RH  059%=      5-min Rain = 0
KCA2 200700Z 13004KT 26/18 A2982 RMK A01 T02640176  RH  058%=      5-min Rain = 0
KCA2 200701Z 12004KT 26/18 A2982 RMK A01 T02640176  RH  059%=      5-min Rain = 0
KCA2 200702Z 11004KT 26/18 A2982 RMK A01 T02640176  RH  058%=      5-min Rain = 0
KCA2 200703Z 09003KT 26/18 A2982 RMK A01 T02640176  RH  058%=      5-min Rain = 0
KCA2 200704Z 09003KT 27/18 A2982 RMK A01 T02650177  RH  059%=      5-min Rain = 0
KCA2 200705Z 11002KT 27/18 A2982 RMK A01 T02650177  RH  059%=      5-min Rain = 0
KCA2 200706Z 11002KT 27/18 A2982 RMK A01 T02650177  RH  059%=      5-min Rain = 0
KCA2 200707Z 10003KT 27/18 A2982 RMK A01 T02650178  RH  059%=      5-min Rain = 0
KCA2 200708Z 11004KT 27/18 A2982 RMK A01 T02660180  RH  059%=      5-min Rain = 0
KCA2 200709Z 12004KT 27/18 A2982 RMK A01 T02650178  RH  059%=      5-min Rain = 0
KCA2 200710Z 12004KT 27/18 A2983 RMK A01 T02660176  RH  058%=      5-min Rain = 0
KCA2 200711Z 11003KT 27/18 A2983 RMK A01 T02670177  RH  057%=      5-min Rain = 0
KCA2 200712Z 12004KT 27/18 A2983 RMK A01 T02680178  RH  058%=      5-min Rain = 0
KCA2 200713Z 11004KT 27/18 A2983 RMK A01 T02680179  RH  058%=      5-min Rain = 0
KCA2 200714Z 11005KT 27/18 A2983 RMK A01 T02680179  RH  058%=      5-min Rain = 0
KCA2 200715Z 12005KT 27/18 A2983 RMK A01 T02680179  RH  058%=      5-min Rain = 0
KCA2 200716Z 12006KT 27/18 A2983 RMK A01 T02680179  RH  058%=      5-min Rain = 0
KCA2 200717Z 12006KT 27/18 A2983 RMK A01 T02680179  RH  058%=      5-min Rain = 0
KCA2 200718Z 13006KT 27/18 A2983 RMK A01 T02670179  RH  059%=      5-min Rain = 0
KCA2 200719Z 14006KT 27/18 A2983 RMK A01 T02670179  RH  058%=      5-min Rain = 0
KCA2 200720Z 14006KT 27/18 A2983 RMK A01 T02670179  RH  058%=      5-min Rain = 0
KCA2 200721Z 14007KT 27/18 A2983 RMK A01 T02680178  RH  058%=      5-min Rain = 0
KCA2 200722Z 14008KT 27/18 A2983 RMK A01 T02700179  RH  057%=      5-min Rain = 0
KCA2 200723Z 14008KT 27/18 A2983 RMK A01 T02720179  RH  057%=      5-min Rain = 0
KCA2 200724Z 14008KT 27/18 A2983 RMK A01 T02740178  RH  056%=      5-min Rain = 0
KCA2 200725Z 13007KT 28/18 A2983 RMK A01 T02750178  RH  056%=      5-min Rain = 0
KCA2 200726Z 13008KT 28/18 A2983 RMK A01 T02750179  RH  056%=      5-min Rain = 0
KCA2 200727Z 13008KT 27/18 A2983 RMK A01 T02740179  RH  056%=      5-min Rain = 0
KCA2 200728Z 13007KT 27/18 A2983 RMK A01 T02740178  RH  056%=      5-min Rain = 0
KCA2 200729Z 13008KT 27/18 A2983 RMK A01 T02740178  RH  056%=      5-min Rain = 0
KCA2 200730Z 13008KT 27/18 A2983 RMK A01 T02740178  RH  056%=      5-min Rain = 0
KCA2 200731Z 13008KT 27/18 A2983 RMK A01 T02730178  RH  056%=      5-min Rain = 0
KCA2 200732Z 13007KT 27/18 A2983 RMK A01 T02730179  RH  056%=      5-min Rain = 0
KCA2 200733Z 13007KT 27/18 A2983 RMK A01 T02730179  RH  056%=      5-min Rain = 0
KCA2 200734Z 13006KT 27/18 A2983 RMK A01 T02730179  RH  056%=      5-min Rain = 0
KCA2 200735Z 12005KT 27/18 A2983 RMK A01 T02740179  RH  056%=      5-min Rain = 0
KCA2 200736Z 12005KT 27/18 A2983 RMK A01 T02740180  RH  056%=      5-min Rain = 0
KCA2 200737Z 12006KT 27/18 A2983 RMK A01 T02740180  RH  056%=      5-min Rain = 0
KCA2 200738Z 12005KT 27/18 A2983 RMK A01 T02740180  RH  056%=      5-min Rain = 0
KCA2 200739Z 12006KT 27/18 A2983 RMK A01 T02740180  RH  056%=      5-min Rain = 0
KCA2 200740Z 12006KT 27/18 A2983 RMK A01 T02740179  RH  056%=      5-min Rain = 0
KCA2 200741Z 12005KT 28/18 A2983 RMK A01 T02750180  RH  056%=      5-min Rain = 0
KCA2 200742Z 12005KT 28/18 A2983 RMK A01 T02750180  RH  056%=      5-min Rain = 0
KCA2 200743Z 13005KT 28/18 A2983 RMK A01 T02750180  RH  056%=      5-min Rain = 0
KCA2 200744Z 13004KT 28/18 A2983 RMK A01 T02750180  RH  056%=      5-min Rain = 0
KCA2 200745Z 14004KT 27/18 A2983 RMK A01 T02740180  RH  057%=      5-min Rain = 0
KCA2 200746Z 14005KT 27/18 A2983 RMK A01 T02740181  RH  057%=      5-min Rain = 0
KCA2 200747Z 15006KT 27/18 A2983 RMK A01 T02740181  RH  057%=      5-min Rain = 0
KCA2 200748Z 15007KT 27/18 A2983 RMK A01 T02730180  RH  057%=      5-min Rain = 0
KCA2 200749Z 15008KT 27/18 A2983 RMK A01 T02730180  RH  057%=      5-min Rain = 0
KCA2 200750Z 14007KT 27/18 A2983 RMK A01 T02720180  RH  057%=      5-min Rain = 0
KCA2 200751Z 14008KT 27/18 A2983 RMK A01 T02720180  RH  057%=      5-min Rain = 0
KCA2 200752Z 14007KT 27/18 A2983 RMK A01 T02720180  RH  057%=      5-min Rain = 0
KCA2 200753Z 14007KT 27/18 A2983 RMK A01 T02720180  RH  057%=      5-min Rain = 0
KCA2 200754Z 14007KT 27/18 A2983 RMK A01 T02720180  RH  057%=      5-min Rain = 0
KCA2 200755Z 14007KT 27/18 A2983 RMK A01 T02710179  RH  057%=      5-min Rain = 0
KCA2 200756Z 14007KT 27/18 A2983 RMK A01 T02710180  RH  057%=      5-min Rain = 0
KCA2 200757Z 14007KT 27/18 A2983 RMK A01 T02710179  RH  057%=      5-min Rain = 0
KCA2 200758Z 14007KT 27/18 A2983 RMK A01 T02710179  RH  057%=      5-min Rain = 0
KCA2 200759Z 14007KT 27/18 A2983 RMK A01 T02720179  RH  057%=      5-min Rain = 0
KCA2 200800Z 14008KT 27/18 A2983 RMK A01 T02720178  RH  057%=      5-min Rain = 0
KCA2 200801Z 14008KT 27/18 A2983 RMK A01 T02720178  RH  056%=      5-min Rain = 0
KCA2 200802Z 14007KT 27/18 A2983 RMK A01 T02730178  RH  056%=      5-min Rain = 0
KCA2 200803Z 14007KT 27/18 A2983 RMK A01 T02730179  RH  056%=      5-min Rain = 0
KCA2 200804Z 14007KT 27/18 A2983 RMK A01 T02730179  RH  056%=      5-min Rain = 0
KCA2 200805Z 14007KT 27/18 A2983 RMK A01 T02720179  RH  057%=      5-min Rain = 0
KCA2 200806Z 13007KT 27/18 A2983 RMK A01 T02720179  RH  057%=      5-min Rain = 0
KCA2 200807Z 13007KT 27/18 A2983 RMK A01 T02710179  RH  057%=      5-min Rain = 0
KCA2 200808Z 13007KT 27/18 A2983 RMK A01 T02710179  RH  057%=      5-min Rain = 0
KCA2 200809Z 13007KT 27/18 A2983 RMK A01 T02710179  RH  057%=      5-min Rain = 0
KCA2 200810Z 13007KT 27/18 A2983 RMK A01 T02710179  RH  057%=      5-min Rain = 0
KCA2 200811Z 13007KT 27/18 A2983 RMK A01 T02710179  RH  057%=      5-min Rain = 0
KCA2 200812Z 13007KT 27/18 A2983 RMK A01 T02710179  RH  057%=      5-min Rain = 0
KCA2 200813Z 14007KT 27/18 A2983 RMK A01 T02710178  RH  057%=      5-min Rain = 0
KCA2 200814Z 14007KT 27/18 A2983 RMK A01 T02720178  RH  056%=      5-min Rain = 0
KCA2 200815Z 14007KT 27/18 A2983 RMK A01 T02720178  RH  056%=      5-min Rain = 0
KCA2 200816Z 14006KT 27/18 A2983 RMK A01 T02720178  RH  056%=      5-min Rain = 0
KCA2 200817Z 14006KT 27/18 A2983 RMK A01 T02720178  RH  057%=      5-min Rain = 0
KCA2 200818Z 14006KT 27/18 A2983 RMK A01 T02720178  RH  057%=      5-min Rain = 0
KCA2 200819Z 14006KT 27/18 A2983 RMK A01 T02710179  RH  057%=      5-min Rain = 0
KCA2 200820Z 14006KT 27/18 A2983 RMK A01 T02710178  RH  057%=      5-min Rain = 0
KCA2 200821Z 14006KT 27/18 A2983 RMK A01 T02700178  RH  057%=      5-min Rain = 0
KCA2 200822Z 14006KT 27/18 A2983 RMK A01 T02700177  RH  057%=      5-min Rain = 0
KCA2 200823Z 14006KT 27/18 A2983 RMK A01 T02700177  RH  057%=      5-min Rain = 0
KCA2 200824Z 14006KT 27/18 A2983 RMK A01 T02700178  RH  057%=      5-min Rain = 0
KCA2 200825Z 15006KT 27/18 A2983 RMK A01 T02700177  RH  057%=      5-min Rain = 0
KCA2 200826Z 15006KT 27/18 A2983 RMK A01 T02700177  RH  057%=      5-min Rain = 0
KCA2 200827Z 14006KT 27/18 A2983 RMK A01 T02700178  RH  057%=      5-min Rain = 0
KCA2 200828Z 14006KT 27/18 A2983 RMK A01 T02700178  RH  057%=      5-min Rain = 0
KCA2 200829Z 14006KT 27/18 A2983 RMK A01 T02690178  RH  057%=      5-min Rain = 0
KCA2 200830Z 14006KT 27/18 A2983 RMK A01 T02690178  RH  057%=      5-min Rain = 0
KCA2 200831Z 14005KT 27/18 A2983 RMK A01 T02690178  RH  057%=      5-min Rain = 0
KCA2 200832Z 14006KT 27/18 A2983 RMK A01 T02690178  RH  058%=      5-min Rain = 0
KCA2 200833Z 14006KT 27/18 A2983 RMK A01 T02680178  RH  058%=      5-min Rain = 0
KCA2 200834Z 14006KT 27/18 A2983 RMK A01 T02680178  RH  058%=      5-min Rain = 0
KCA2 200835Z 14006KT 27/18 A2983 RMK A01 T02680178  RH  058%=      5-min Rain = 0
KCA2 200836Z 14006KT 27/18 A2983 RMK A01 T02680178  RH  058%=      5-min Rain = 0
KCA2 200837Z 14006KT 27/18 A2983 RMK A01 T02670178  RH  058%=      5-min Rain = 0
KCA2 200838Z 14006KT 27/18 A2983 RMK A01 T02670178  RH  058%=      5-min Rain = 0
KCA2 200839Z 14006KT 27/18 A2983 RMK A01 T02660177  RH  058%=      5-min Rain = 0
KCA2 200840Z 14006KT 27/18 A2983 RMK A01 T02670178  RH  058%=      5-min Rain = 0
KCA2 200841Z 14006KT 27/18 A2983 RMK A01 T02670178  RH  058%=      5-min Rain = 0
KCA2 200842Z 14006KT 27/18 A2983 RMK A01 T02660178  RH  058%=      5-min Rain = 0
KCA2 200843Z 15006KT 27/18 A2983 RMK A01 T02660178  RH  058%=      5-min Rain = 0
KCA2 200844Z 15006KT 27/18 A2983 RMK A01 T02660178  RH  058%=      5-min Rain = 0
KCA2 200845Z 14006KT 27/18 A2983 RMK A01 T02660178  RH  059%=      5-min Rain = 0
KCA2 200846Z 15006KT 27/18 A2983 RMK A01 T02650178  RH  059%=      5-min Rain = 0
KCA2 200847Z 14006KT 27/18 A2983 RMK A01 T02650178  RH  059%=      5-min Rain = 0
KCA2 200848Z 15006KT 27/18 A2983 RMK A01 T02650177  RH  059%=      5-min Rain = 0
KCA2 200849Z 15006KT 27/18 A2983 RMK A01 T02650177  RH  058%=      5-min Rain = 0
KCA2 200850Z 15006KT 27/18 A2983 RMK A01 T02660177  RH  058%=      5-min Rain = 0
KCA2 200851Z 15006KT 27/18 A2983 RMK A01 T02660177  RH  058%=      5-min Rain = 0
KCA2 200852Z 15006KT 27/18 A2983 RMK A01 T02660178  RH  058%=      5-min Rain = 0
KCA2 200853Z 15006KT 27/18 A2983 RMK A01 T02670177  RH  058%=      5-min Rain = 0
KCA2 200854Z 15006KT 27/18 A2983 RMK A01 T02660178  RH  058%=      5-min Rain = 0
KCA2 200855Z 14006KT 27/18 A2983 RMK A01 T02660178  RH  058%=      5-min Rain = 0
KCA2 200856Z 14005KT 27/18 A2983 RMK A01 T02670178  RH  058%=      5-min Rain = 0
KCA2 200857Z 14005KT 27/18 A2983 RMK A01 T02660178  RH  058%=      5-min Rain = 0
KCA2 200858Z 15006KT 27/18 A2983 RMK A01 T02660178  RH  059%=      5-min Rain = 0
KCA2 200859Z 15006KT 27/18 A2983 RMK A01 T02650178  RH  059%=      5-min Rain = 0
KCA2 200900Z 15006KT 26/18 A2983 RMK A01 T02640178  RH  059%=      5-min Rain = 0
KCA2 200901Z 15006KT 26/18 A2983 RMK A01 T02640178  RH  059%=      5-min Rain = 0
KCA2 200902Z 15006KT 26/18 A2983 RMK A01 T02640178  RH  059%=      5-min Rain = 0
KCA2 200903Z 14007KT 26/18 A2983 RMK A01 T02630178  RH  060%=      5-min Rain = 0
KCA2 200904Z 14007KT 26/18 A2983 RMK A01 T02630178  RH  060%=      5-min Rain = 0
KCA2 200905Z 14007KT 26/18 A2983 RMK A01 T02630178  RH  060%=      5-min Rain = 0
KCA2 200906Z 14007KT 26/18 A2983 RMK A01 T02620178  RH  060%=      5-min Rain = 0
KCA2 200907Z 14007KT 26/18 A2983 RMK A01 T02620178  RH  060%=      5-min Rain = 0
KCA2 200908Z 14008KT 26/18 A2983 RMK A01 T02610177  RH  060%=      5-min Rain = 0
KCA2 200909Z 14007KT 26/18 A2983 RMK A01 T02620178  RH  060%=      5-min Rain = 0
KCA2 200910Z 14008KT 26/18 A2984 RMK A01 T02610177  RH  060%=      5-min Rain = 0
KCA2 200911Z 14007KT 26/18 A2984 RMK A01 T02610177  RH  060%=      5-min Rain = 0
KCA2 200912Z 15007KT 26/18 A2983 RMK A01 T02620176  RH  059%=      5-min Rain = 0
KCA2 200913Z 15006KT 26/18 A2983 RMK A01 T02610176  RH  059%=      5-min Rain = 0
KCA2 200914Z 15007KT 26/18 A2984 RMK A01 T02620175  RH  059%=      5-min Rain = 0
KCA2 200915Z 15006KT 26/18 A2984 RMK A01 T02620175  RH  059%=      5-min Rain = 0
KCA2 200916Z 15006KT 26/17 A2984 RMK A01 T02620174  RH  058%=      5-min Rain = 0
KCA2 200917Z 16005KT 26/17 A2984 RMK A01 T02630174  RH  058%=      5-min Rain = 0
KCA2 200918Z 16005KT 26/18 A2984 RMK A01 T02640175  RH  058%=      5-min Rain = 0
KCA2 200919Z 16005KT 26/18 A2984 RMK A01 T02630176  RH  059%=      5-min Rain = 0
KCA2 200920Z 16006KT 26/18 A2984 RMK A01 T02630178  RH  059%=      5-min Rain = 0
KCA2 200921Z 16005KT 26/18 A2984 RMK A01 T02620178  RH  060%=      5-min Rain = 0
KCA2 200922Z 16005KT 26/18 A2984 RMK A01 T02610178  RH  060%=      5-min Rain = 0
KCA2 200923Z 16005KT 26/18 A2984 RMK A01 T02600179  RH  061%=      5-min Rain = 0
KCA2 200924Z 17005KT 26/18 A2984 RMK A01 T02590178  RH  061%=      5-min Rain = 0
KCA2 200925Z 17004KT 26/18 A2984 RMK A01 T02590178  RH  061%=      5-min Rain = 0
KCA2 200926Z 18004KT 26/18 A2984 RMK A01 T02580178  RH  061%=      5-min Rain = 0
KCA2 200927Z 18004KT 26/18 A2984 RMK A01 T02580178  RH  061%=      5-min Rain = 0
KCA2 200928Z 18005KT 26/18 A2984 RMK A01 T02580177  RH  061%=      5-min Rain = 0
KCA2 200929Z 18005KT 26/18 A2984 RMK A01 T02580176  RH  061%=      5-min Rain = 0
KCA2 200930Z 18005KT 26/18 A2984 RMK A01 T02580175  RH  060%=      5-min Rain = 0
KCA2 200931Z 18006KT 26/17 A2984 RMK A01 T02580172  RH  059%=      5-min Rain = 0
KCA2 200932Z 18006KT 26/17 A2984 RMK A01 T02590171  RH  058%=      5-min Rain = 0
KCA2 200933Z 17005KT 26/17 A2984 RMK A01 T02600172  RH  058%=      5-min Rain = 0
KCA2 200934Z 17005KT 26/17 A2984 RMK A01 T02610171  RH  058%=      5-min Rain = 0
KCA2 200935Z 17006KT 26/17 A2984 RMK A01 T02610170  RH  057%=      5-min Rain = 0
KCA2 200936Z 17006KT 26/17 A2984 RMK A01 T02610169  RH  057%=      5-min Rain = 0
KCA2 200937Z 17006KT 26/17 A2984 RMK A01 T02610169  RH  057%=      5-min Rain = 0
KCA2 200938Z 16006KT 26/17 A2985 RMK A01 T02610172  RH  058%=      5-min Rain = 0
KCA2 200939Z 16006KT 26/17 A2985 RMK A01 T02600172  RH  058%=      5-min Rain = 0
KCA2 200940Z 17006KT 26/17 A2985 RMK A01 T02590169  RH  058%=      5-min Rain = 0
KCA2 200941Z 16006KT 26/17 A2985 RMK A01 T02590169  RH  058%=      5-min Rain = 0
KCA2 200942Z 17006KT 26/17 A2985 RMK A01 T02580169  RH  058%=      5-min Rain = 0
KCA2 200943Z 17006KT 26/17 A2985 RMK A01 T02580170  RH  058%=      5-min Rain = 0
KCA2 200944Z 17006KT 26/17 A2985 RMK A01 T02580168  RH  058%=      5-min Rain = 0
KCA2 200945Z 17005KT 26/17 A2985 RMK A01 T02570167  RH  057%=      5-min Rain = 0
KCA2 200946Z 17005KT 26/17 A2985 RMK A01 T02570168  RH  058%=      5-min Rain = 0
KCA2 200947Z 17004KT 26/17 A2985 RMK A01 T02570168  RH  058%=      5-min Rain = 0
KCA2 200948Z 17005KT 26/17 A2986 RMK A01 T02570167  RH  058%=      5-min Rain = 0
KCA2 200949Z 17006KT 26/17 A2986 RMK A01 T02570166  RH  057%=      5-min Rain = 0
KCA2 200950Z 18006KT 26/16 A2986 RMK A01 T02570164  RH  056%=      5-min Rain = 0
KCA2 200951Z 17006KT 26/16 A2986 RMK A01 T02590163  RH  056%=      5-min Rain = 0
KCA2 200952Z 17006KT 26/16 A2985 RMK A01 T02600160  RH  054%=      5-min Rain = 0
KCA2 200953Z 17005KT 26/16 A2985 RMK A01 T02630159  RH  053%=      5-min Rain = 0
KCA2 200954Z 17006KT 27/16 A2985 RMK A01 T02650158  RH  052%=      5-min Rain = 0
KCA2 200955Z 17006KT 27/16 A2985 RMK A01 T02670158  RH  051%=      5-min Rain = 0
KCA2 200956Z 16005KT 27/16 A2986 RMK A01 T02680158  RH  051%=      5-min Rain = 0
KCA2 200957Z 16006KT 27/16 A2986 RMK A01 T02690158  RH  051%=      5-min Rain = 0
KCA2 200958Z 16006KT 27/16 A2986 RMK A01 T02690159  RH  051%=      5-min Rain = 0
KCA2 200959Z 15006KT 27/16 A2986 RMK A01 T02690158  RH  051%=      5-min Rain = 0
KCA2 201000Z 15006KT 27/16 A2986 RMK A01 T02690160  RH  051%=      5-min Rain = 0
KCA2 201001Z 14005KT 27/16 A2985 RMK A01 T02680158  RH  051%=      5-min Rain = 0
KCA2 201002Z 14005KT 27/16 A2985 RMK A01 T02680161  RH  052%=      5-min Rain = 0
KCA2 201003Z 14004KT 27/16 A2985 RMK A01 T02670163  RH  053%=      5-min Rain = 0
KCA2 201004Z 14004KT 27/16 A2985 RMK A01 T02650163  RH  053%=      5-min Rain = 0
KCA2 201005Z 13004KT 26/16 A2985 RMK A01 T02640162  RH  053%=      5-min Rain = 0
KCA2 201006Z 14004KT 26/16 A2985 RMK A01 T02640161  RH  053%=      5-min Rain = 0
KCA2 201007Z 14005KT 26/16 A2985 RMK A01 T02630160  RH  053%=      5-min Rain = 0
KCA2 201008Z 15006KT 26/16 A2985 RMK A01 T02630161  RH  053%=      5-min Rain = 0
KCA2 201009Z 15006KT 26/16 A2986 RMK A01 T02630162  RH  054%=      5-min Rain = 0
KCA2 201010Z 16007KT 26/16 A2986 RMK A01 T02620162  RH  054%=      5-min Rain = 0
KCA2 201011Z 16007KT 26/16 A2986 RMK A01 T02620161  RH  054%=      5-min Rain = 0
KCA2 201012Z 15007KT 26/16 A2986 RMK A01 T02620160  RH  053%=      5-min Rain = 0
KCA2 201013Z 15006KT 26/16 A2986 RMK A01 T02620160  RH  053%=      5-min Rain = 0
KCA2 201014Z 15006KT 26/16 A2985 RMK A01 T02620161  RH  054%=      5-min Rain = 0
KCA2 201015Z 15005KT 26/16 A2985 RMK A01 T02610161  RH  054%=      5-min Rain = 0
KCA2 201016Z 16005KT 26/16 A2985 RMK A01 T02610162  RH  054%=      5-min Rain = 0
KCA2 201017Z 17006KT 26/16 A2985 RMK A01 T02610162  RH  054%=      5-min Rain = 0
KCA2 201018Z 17007KT 26/16 A2986 RMK A01 T02600160  RH  054%=      5-min Rain = 0
KCA2 201019Z 17007KT 26/16 A2986 RMK A01 T02600158  RH  053%=      5-min Rain = 0
KCA2 201020Z 17006KT 26/16 A2986 RMK A01 T02610157  RH  053%=      5-min Rain = 0
KCA2 201021Z 17006KT 26/16 A2986 RMK A01 T02630156  RH  052%=      5-min Rain = 0
KCA2 201022Z 18005KT 26/16 A2986 RMK A01 T02630157  RH  052%=      5-min Rain = 0
KCA2 201023Z 18006KT 26/16 A2986 RMK A01 T02640156  RH  052%=      5-min Rain = 0
KCA2 201024Z 18006KT 26/16 A2986 RMK A01 T02640156  RH  052%=      5-min Rain = 0
KCA2 201025Z 17005KT 26/16 A2986 RMK A01 T02640156  RH  052%=      5-min Rain = 0
KCA2 201026Z 17004KT 26/16 A2986 RMK A01 T02630156  RH  052%=      5-min Rain = 0
KCA2 201027Z 16005KT 26/16 A2986 RMK A01 T02630156  RH  052%=      5-min Rain = 0
KCA2 201028Z 15005KT 26/15 A2986 RMK A01 T02620154  RH  051%=      5-min Rain = 0
KCA2 201029Z 14004KT 26/16 A2986 RMK A01 T02620155  RH  052%=      5-min Rain = 0
KCA2 201030Z 14004KT 26/16 A2986 RMK A01 T02620157  RH  052%=      5-min Rain = 0
KCA2 201031Z 14004KT 26/16 A2986 RMK A01 T02610157  RH  053%=      5-min Rain = 0
KCA2 201032Z 14004KT 26/16 A2986 RMK A01 T02600156  RH  053%=      5-min Rain = 0
KCA2 201033Z 14005KT 26/16 A2986 RMK A01 T02600156  RH  052%=      5-min Rain = 0
KCA2 201034Z 14005KT 26/15 A2986 RMK A01 T02600154  RH  052%=      5-min Rain = 0
KCA2 201035Z 14004KT 26/15 A2986 RMK A01 T02610154  RH  052%=      5-min Rain = 0
KCA2 201036Z 15004KT 26/16 A2986 RMK A01 T02620155  RH  052%=      5-min Rain = 0
KCA2 201037Z 16004KT 26/15 A2986 RMK A01 T02620153  RH  051%=      5-min Rain = 0
KCA2 201038Z 16004KT 26/15 A2986 RMK A01 T02620152  RH  051%=      5-min Rain = 0
KCA2 201039Z 17004KT 26/15 A2986 RMK A01 T02630152  RH  051%=      5-min Rain = 0
KCA2 201040Z 18004KT 26/15 A2986 RMK A01 T02630153  RH  051%=      5-min Rain = 0
KCA2 201041Z 18005KT 26/15 A2986 RMK A01 T02630154  RH  051%=      5-min Rain = 0
KCA2 201042Z 18005KT 26/15 A2986 RMK A01 T02630154  RH  051%=      5-min Rain = 0
KCA2 201043Z 17005KT 26/15 A2986 RMK A01 T02630154  RH  051%=      5-min Rain = 0
KCA2 201044Z 17005KT 26/15 A2986 RMK A01 T02630154  RH  051%=      5-min Rain = 0
KCA2 201045Z 17005KT 26/15 A2986 RMK A01 T02630152  RH  051%=      5-min Rain = 0
KCA2 201046Z 17005KT 26/15 A2986 RMK A01 T02620151  RH  050%=      5-min Rain = 0
KCA2 201047Z 16005KT 26/15 A2986 RMK A01 T02620150  RH  050%=      5-min Rain = 0
KCA2 201048Z 16005KT 26/15 A2986 RMK A01 T02630151  RH  050%=      5-min Rain = 0
KCA2 201049Z 16005KT 26/15 A2986 RMK A01 T02630150  RH  050%=      5-min Rain = 0
KCA2 201050Z 17006KT 26/15 A2986 RMK A01 T02630151  RH  050%=      5-min Rain = 0
KCA2 201051Z 17005KT 26/15 A2986 RMK A01 T02630151  RH  050%=      5-min Rain = 0
KCA2 201052Z 17005KT 26/15 A2986 RMK A01 T02620151  RH  050%=      5-min Rain = 0
KCA2 201053Z 18005KT 26/15 A2987 RMK A01 T02620151  RH  050%=      5-min Rain = 0
KCA2 201054Z 17005KT 26/15 A2987 RMK A01 T02620151  RH  050%=      5-min Rain = 0
KCA2 201055Z 17005KT 26/15 A2987 RMK A01 T02610151  RH  050%=      5-min Rain = 0
KCA2 201056Z 17005KT 26/15 A2987 RMK A01 T02610151  RH  051%=      5-min Rain = 0
KCA2 201057Z 17005KT 26/15 A2987 RMK A01 T02610150  RH  051%=      5-min Rain = 0
KCA2 201058Z 17005KT 26/15 A2987 RMK A01 T02610151  RH  051%=      5-min Rain = 0
KCA2 201059Z 16005KT 26/15 A2987 RMK A01 T02600150  RH  051%=      5-min Rain = 0
KCA2 201100Z 17005KT 26/15 A2987 RMK A01 T02600150  RH  051%=      5-min Rain = 0
KCA2 201101Z 17005KT 26/15 A2987 RMK A01 T02600150  RH  051%=      5-min Rain = 0
KCA2 201102Z 17006KT 26/15 A2987 RMK A01 T02600151  RH  051%=      5-min Rain = 0
KCA2 201103Z 17006KT 26/15 A2987 RMK A01 T02590151  RH  051%=      5-min Rain = 0
KCA2 201104Z 17006KT 26/15 A2987 RMK A01 T02590149  RH  051%=      5-min Rain = 0
KCA2 201105Z 17006KT 26/15 A2987 RMK A01 T02590150  RH  051%=      5-min Rain = 0
KCA2 201106Z 17006KT 26/15 A2987 RMK A01 T02590150  RH  051%=      5-min Rain = 0
KCA2 201107Z 18007KT 26/15 A2987 RMK A01 T02590151  RH  051%=      5-min Rain = 0
KCA2 201108Z 18007KT 26/15 A2987 RMK A01 T02580151  RH  052%=      5-min Rain = 0
KCA2 201109Z 18007KT 26/15 A2987 RMK A01 T02580151  RH  052%=      5-min Rain = 0
KCA2 201110Z 18007KT 26/15 A2987 RMK A01 T02590152  RH  052%=      5-min Rain = 0
KCA2 201111Z 18007KT 26/15 A2987 RMK A01 T02580152  RH  052%=      5-min Rain = 0
KCA2 201112Z 18006KT 26/15 A2987 RMK A01 T02590152  RH  052%=      5-min Rain = 0
KCA2 201113Z 18006KT 26/15 A2987 RMK A01 T02590152  RH  052%=      5-min Rain = 0
KCA2 201114Z 18007KT 26/15 A2987 RMK A01 T02590152  RH  052%=      5-min Rain = 0
KCA2 201115Z 18007KT 26/15 A2987 RMK A01 T02600152  RH  051%=      5-min Rain = 0
KCA2 201116Z 18007KT 26/15 A2988 RMK A01 T02600152  RH  051%=      5-min Rain = 0
KCA2 201117Z 18007KT 26/15 A2988 RMK A01 T02600152  RH  051%=      5-min Rain = 0
KCA2 201118Z 18007KT 26/15 A2988 RMK A01 T02600152  RH  051%=      5-min Rain = 0
KCA2 201119Z 17007KT 26/15 A2988 RMK A01 T02600151  RH  051%=      5-min Rain = 0
KCA2 201120Z 17006KT 26/15 A2988 RMK A01 T02600151  RH  051%=      5-min Rain = 0
KCA2 201121Z 17007KT 26/15 A2988 RMK A01 T02600152  RH  051%=      5-min Rain = 0
KCA2 201122Z 17006KT 26/15 A2988 RMK A01 T02600153  RH  052%=      5-min Rain = 0
KCA2 201123Z 17005KT 26/15 A2988 RMK A01 T02590154  RH  052%=      5-min Rain = 0
KCA2 201124Z 15004KT 26/16 A2988 RMK A01 T02580156  RH  053%=      5-min Rain = 0
KCA2 201125Z 13003KT 26/16 A2988 RMK A01 T02550159  RH  055%=      5-min Rain = 0
KCA2 201126Z 12002KT 25/16 A2988 RMK A01 T02510158  RH  056%=      5-min Rain = 0
KCA2 201127Z 13003KT 25/16 A2988 RMK A01 T02480158  RH  057%=      5-min Rain = 0
KCA2 201128Z 13003KT 25/16 A2988 RMK A01 T02470158  RH  057%=      5-min Rain = 0
KCA2 201129Z 13003KT 25/16 A2988 RMK A01 T02470157  RH  057%=      5-min Rain = 0
KCA2 201130Z 13002KT 25/16 A2988 RMK A01 T02470157  RH  057%=      5-min Rain = 0
KCA2 201131Z 11002KT 25/16 A2988 RMK A01 T02480159  RH  058%=      5-min Rain = 0
KCA2 201132Z 10003KT 25/16 A2988 RMK A01 T02480159  RH  058%=      5-min Rain = 0
KCA2 201133Z 11002KT 25/16 A2988 RMK A01 T02470158  RH  058%=      5-min Rain = 0
KCA2 201134Z 12002KT 25/16 A2988 RMK A01 T02470158  RH  057%=      5-min Rain = 0
KCA2 201135Z 12002KT 25/16 A2988 RMK A01 T02470156  RH  057%=      5-min Rain = 0
KCA2 201136Z 12003KT 25/16 A2988 RMK A01 T02480156  RH  057%=      5-min Rain = 0
KCA2 201137Z 11003KT 25/16 A2988 RMK A01 T02490155  RH  056%=      5-min Rain = 0
KCA2 201138Z 11003KT 25/16 A2988 RMK A01 T02500155  RH  055%=      5-min Rain = 0
KCA2 201139Z 11002KT 25/16 A2988 RMK A01 T02500156  RH  056%=      5-min Rain = 0
KCA2 201140Z 12002KT 25/16 A2988 RMK A01 T02500156  RH  056%=      5-min Rain = 0
KCA2 201141Z 13003KT 25/16 A2988 RMK A01 T02500155  RH  056%=      5-min Rain = 0
KCA2 201142Z 14003KT 25/16 A2988 RMK A01 T02500155  RH  055%=      5-min Rain = 0
KCA2 201143Z 14003KT 25/15 A2988 RMK A01 T02510154  RH  055%=      5-min Rain = 0
KCA2 201144Z 14003KT 25/16 A2988 RMK A01 T02510155  RH  055%=      5-min Rain = 0
KCA2 201145Z 14003KT 25/15 A2988 RMK A01 T02510154  RH  055%=      5-min Rain = 0
KCA2 201146Z 14003KT 25/15 A2988 RMK A01 T02510154  RH  055%=      5-min Rain = 0
KCA2 201147Z 14003KT 25/15 A2989 RMK A01 T02510154  RH  055%=      5-min Rain = 0
KCA2 201148Z 14003KT 25/16 A2989 RMK A01 T02510155  RH  055%=      5-min Rain = 0
KCA2 201149Z 15003KT 25/15 A2989 RMK A01 T02510154  RH  055%=      5-min Rain = 0
KCA2 201150Z 14003KT 25/15 A2989 RMK A01 T02510154  RH  055%=      5-min Rain = 0
KCA2 201151Z 14003KT 25/15 A2989 RMK A01 T02510154  RH  055%=      5-min Rain = 0
KCA2 201152Z 14003KT 25/15 A2989 RMK A01 T02510154  RH  055%=      5-min Rain = 0
KCA2 201153Z 14003KT 25/15 A2989 RMK A01 T02510154  RH  055%=      5-min Rain = 0
KCA2 201154Z 14003KT 25/15 A2989 RMK A01 T02510154  RH  055%=      5-min Rain = 0
KCA2 201155Z 14003KT 25/16 A2989 RMK A01 T02510155  RH  055%=      5-min Rain = 0
KCA2 201156Z 14003KT 25/16 A2989 RMK A01 T02510155  RH  055%=      5-min Rain = 0
KCA2 201157Z 14003KT 25/16 A2989 RMK A01 T02510155  RH  055%=      5-min Rain = 0
KCA2 201158Z 14003KT 25/15 A2989 RMK A01 T02510153  RH  055%=      5-min Rain = 0
KCA2 201159Z 13004KT 25/16 A2989 RMK A01 T02520155  RH  055%=      5-min Rain = 0
KCA2 201200Z 13004KT 25/16 A2989 RMK A01 T02520155  RH  055%=      5-min Rain = 0
KCA2 201201Z 11003KT 25/16 A2989 RMK A01 T02520156  RH  055%=      5-min Rain = 0
KCA2 201202Z 10003KT 25/16 A2989 RMK A01 T02510157  RH  056%=      5-min Rain = 0
KCA2 201203Z 09003KT 25/16 A2989 RMK A01 T02500158  RH  057%=      5-min Rain = 0
KCA2 201204Z 10003KT 25/16 A2989 RMK A01 T02490158  RH  057%=      5-min Rain = 0
KCA2 201205Z 10003KT 25/16 A2989 RMK A01 T02480158  RH  058%=      5-min Rain = 0
KCA2 201206Z 11003KT 25/16 A2989 RMK A01 T02470158  RH  058%=      5-min Rain = 0
KCA2 201207Z 11003KT 25/16 A2989 RMK A01 T02470158  RH  058%=      5-min Rain = 0
KCA2 201208Z 11003KT 25/16 A2989 RMK A01 T02470159  RH  058%=      5-min Rain = 0
KCA2 201209Z 11003KT 25/16 A2989 RMK A01 T02470159  RH  058%=      5-min Rain = 0
KCA2 201210Z 11003KT 25/16 A2989 RMK A01 T02470159  RH  058%=      5-min Rain = 0
KCA2 201211Z 10003KT 25/16 A2989 RMK A01 T02470160  RH  058%=      5-min Rain = 0
KCA2 201212Z 11003KT 25/16 A2989 RMK A01 T02470160  RH  058%=      5-min Rain = 0
KCA2 201213Z 12003KT 25/16 A2989 RMK A01 T02470160  RH  058%=      5-min Rain = 0
KCA2 201214Z 12003KT 25/16 A2989 RMK A01 T02470158  RH  058%=      5-min Rain = 0
KCA2 201215Z 13003KT 25/16 A2989 RMK A01 T02480157  RH  057%=      5-min Rain = 0
KCA2 201216Z 13004KT 25/16 A2989 RMK A01 T02490157  RH  056%=      5-min Rain = 0
KCA2 201217Z 13004KT 25/16 A2989 RMK A01 T02500157  RH  056%=      5-min Rain = 0
KCA2 201218Z 12003KT 25/16 A2989 RMK A01 T02510158  RH  056%=      5-min Rain = 0
KCA2 201219Z 11003KT 25/16 A2989 RMK A01 T02510158  RH  056%=      5-min Rain = 0
KCA2 201220Z 11003KT 25/16 A2989 RMK A01 T02510158  RH  056%=      5-min Rain = 0
KCA2 201221Z 11002KT 25/16 A2989 RMK A01 T02520158  RH  056%=      5-min Rain = 0
KCA2 201222Z 12002KT 25/16 A2989 RMK A01 T02530158  RH  056%=      5-min Rain = 0
KCA2 201223Z 14002KT 25/16 A2989 RMK A01 T02530157  RH  055%=      5-min Rain = 0
KCA2 201224Z 15002KT 25/16 A2989 RMK A01 T02540156  RH  055%=      5-min Rain = 0
KCA2 201225Z 14003KT 25/16 A2989 RMK A01 T02540156  RH  055%=      5-min Rain = 0
KCA2 201226Z 14003KT 26/16 A2989 RMK A01 T02550158  RH  055%=      5-min Rain = 0
KCA2 201227Z 15003KT 26/16 A2989 RMK A01 T02550160  RH  056%=      5-min Rain = 0
KCA2 201228Z 15003KT 26/16 A2989 RMK A01 T02560158  RH  055%=      5-min Rain = 0
KCA2 201229Z 15003KT 26/16 A2989 RMK A01 T02560158  RH  055%=      5-min Rain = 0
KCA2 201230Z 15003KT 26/16 A2989 RMK A01 T02570157  RH  054%=      5-min Rain = 0
KCA2 201231Z 15003KT 26/16 A2989 RMK A01 T02570158  RH  054%=      5-min Rain = 0
KCA2 201232Z 15003KT 26/16 A2989 RMK A01 T02580156  RH  054%=      5-min Rain = 0
KCA2 201233Z 15003KT 26/16 A2989 RMK A01 T02580157  RH  054%=      5-min Rain = 0
KCA2 201234Z 16004KT 26/16 A2989 RMK A01 T02580157  RH  054%=      5-min Rain = 0
KCA2 201235Z 16003KT 26/16 A2989 RMK A01 T02590156  RH  053%=      5-min Rain = 0
KCA2 201236Z 15003KT 26/16 A2989 RMK A01 T02590158  RH  054%=      5-min Rain = 0
KCA2 201237Z 15003KT 26/16 A2989 RMK A01 T02590159  RH  054%=      5-min Rain = 0
KCA2 201238Z 15003KT 26/16 A2989 RMK A01 T02590159  RH  054%=      5-min Rain = 0
KCA2 201239Z 14003KT 26/16 A2989 RMK A01 T02600159  RH  054%=      5-min Rain = 0
KCA2 201240Z 15004KT 26/16 A2989 RMK A01 T02600160  RH  054%=      5-min Rain = 0
KCA2 201241Z 14003KT 26/16 A2989 RMK A01 T02600159  RH  054%=      5-min Rain = 0
KCA2 201242Z 14003KT 26/16 A2989 RMK A01 T02600157  RH  053%=      5-min Rain = 0
KCA2 201243Z 14002KT 26/16 A299 RMK A01 T02600160  RH  054%=      5-min Rain = 0
KCA2 201244Z 14002KT 26/16 A299 RMK A01 T02610161  RH  054%=      5-min Rain = 0
KCA2 201245Z 12002KT 26/16 A299 RMK A01 T02610159  RH  053%=      5-min Rain = 0
KCA2 201246Z 13003KT 26/16 A299 RMK A01 T02610158  RH  053%=      5-min Rain = 0
KCA2 201247Z 14003KT 26/16 A299 RMK A01 T02610158  RH  053%=      5-min Rain = 0
KCA2 201248Z 15003KT 26/16 A299 RMK A01 T02610156  RH  052%=      5-min Rain = 0
KCA2 201249Z 14003KT 26/16 A299 RMK A01 T02610157  RH  052%=      5-min Rain = 0
KCA2 201250Z 14003KT 26/16 A299 RMK A01 T02620157  RH  052%=      5-min Rain = 0
KCA2 201251Z 14003KT 26/16 A299 RMK A01 T02620156  RH  052%=      5-min Rain = 0
KCA2 201252Z 13003KT 26/16 A299 RMK A01 T02620157  RH  052%=      5-min Rain = 0
KCA2 201253Z 12002KT 26/16 A299 RMK A01 T02630159  RH  053%=      5-min Rain = 0
KCA2 201254Z 12003KT 26/16 A299 RMK A01 T02630160  RH  053%=      5-min Rain = 0
KCA2 201255Z 13003KT 26/16 A299 RMK A01 T02630159  RH  053%=      5-min Rain = 0
KCA2 201256Z 14003KT 26/16 A299 RMK A01 T02630159  RH  053%=      5-min Rain = 0
KCA2 201257Z 11003KT 26/16 A299 RMK A01 T02630161  RH  053%=      5-min Rain = 0
KCA2 201258Z 11003KT 26/17 A299 RMK A01 T02640165  RH  055%=      5-min Rain = 0
KCA2 201259Z 10003KT 26/17 A299 RMK A01 T02630167  RH  055%=      5-min Rain = 0
KCA2 201300Z 11003KT 26/17 A299 RMK A01 T02640166  RH  055%=      5-min Rain = 0
KCA2 201301Z 12003KT 26/17 A299 RMK A01 T02640167  RH  055%=      5-min Rain = 0
KCA2 201302Z 12002KT 27/17 A299 RMK A01 T02650165  RH  054%=      5-min Rain = 0
KCA2 201303Z 12002KT 27/17 A299 RMK A01 T02660166  RH  054%=      5-min Rain = 0
KCA2 201304Z 13002KT 27/17 A299 RMK A01 T02680167  RH  054%=      5-min Rain = 0
KCA2 201305Z 13002KT 27/17 A299 RMK A01 T02680167  RH  054%=      5-min Rain = 0
KCA2 201306Z 13002KT 27/17 A299 RMK A01 T02700167  RH  053%=      5-min Rain = 0
KCA2 201307Z 13001KT 27/16 A299 RMK A01 T02710164  RH  052%=      5-min Rain = 0
KCA2 201308Z 14002KT 27/17 A2991 RMK A01 T02710165  RH  052%=      5-min Rain = 0
KCA2 201309Z 13001KT 27/17 A2991 RMK A01 T02710166  RH  052%=      5-min Rain = 0
KCA2 201310Z 13001KT 27/17 A2991 RMK A01 T02720166  RH  052%=      5-min Rain = 0
KCA2 201311Z 12001KT 27/17 A2991 RMK A01 T02720167  RH  052%=      5-min Rain = 0
KCA2 201312Z 12002KT 27/17 A2991 RMK A01 T02740167  RH  052%=      5-min Rain = 0
KCA2 201313Z 12002KT 27/17 A2991 RMK A01 T02740165  RH  051%=      5-min Rain = 0
KCA2 201314Z 14002KT 28/16 A2991 RMK A01 T02750164  RH  051%=      5-min Rain = 0
KCA2 201315Z 14002KT 28/17 A2991 RMK A01 T02750166  RH  051%=      5-min Rain = 0
KCA2 201316Z 14003KT 28/17 A2991 RMK A01 T02750166  RH  051%=      5-min Rain = 0
KCA2 201317Z 14003KT 28/17 A2991 RMK A01 T02750165  RH  051%=      5-min Rain = 0
KCA2 201318Z 14004KT 28/17 A2991 RMK A01 T02750165  RH  051%=      5-min Rain = 0
KCA2 201319Z 13004KT 28/17 A299 RMK A01 T02750165  RH  051%=      5-min Rain = 0
KCA2 201320Z 14003KT 28/17 A299 RMK A01 T02750166  RH  051%=      5-min Rain = 0
KCA2 201321Z 14003KT 28/17 A299 RMK A01 T02750169  RH  052%=      5-min Rain = 0
KCA2 201322Z 15003KT 28/17 A299 RMK A01 T02750168  RH  052%=      5-min Rain = 0
KCA2 201323Z 15003KT 28/17 A299 RMK A01 T02750170  RH  053%=      5-min Rain = 0
KCA2 201324Z 16003KT 28/17 A299 RMK A01 T02750171  RH  053%=      5-min Rain = 0
KCA2 201325Z 15004KT 28/17 A2991 RMK A01 T02760172  RH  053%=      5-min Rain = 0
KCA2 201326Z 16004KT 28/17 A2991 RMK A01 T02770171  RH  053%=      5-min Rain = 0
KCA2 201327Z 16004KT 28/17 A2991 RMK A01 T02770170  RH  052%=      5-min Rain = 0
KCA2 201328Z 16003KT 28/17 A2991 RMK A01 T02780171  RH  052%=      5-min Rain = 0
KCA2 201329Z 16003KT 28/17 A2991 RMK A01 T02790172  RH  052%=      5-min Rain = 0
KCA2 201330Z 16003KT 28/17 A2991 RMK A01 T02800172  RH  052%=      5-min Rain = 0
KCA2 201331Z 16004KT 28/17 A2991 RMK A01 T02810169  RH  051%=      5-min Rain = 0
KCA2 201332Z 16004KT 28/17 A2991 RMK A01 T02820168  RH  050%=      5-min Rain = 0
KCA2 201333Z 17004KT 28/17 A2991 RMK A01 T02820167  RH  049%=      5-min Rain = 0
KCA2 201334Z 17003KT 28/17 A2991 RMK A01 T02830169  RH  050%=      5-min Rain = 0
KCA2 201335Z 16004KT 28/17 A2991 RMK A01 T02830168  RH  050%=      5-min Rain = 0
KCA2 201336Z 17004KT 28/17 A2991 RMK A01 T02840170  RH  050%=      5-min Rain = 0
KCA2 201337Z 16005KT 28/17 A2991 RMK A01 T02840169  RH  050%=      5-min Rain = 0
KCA2 201338Z 18004KT 29/17 A2991 RMK A01 T02850168  RH  049%=      5-min Rain = 0
KCA2 201339Z 17004KT 29/17 A2991 RMK A01 T02860170  RH  049%=      5-min Rain = 0
KCA2 201340Z 17005KT 29/17 A2991 RMK A01 T02870168  RH  049%=      5-min Rain = 0
KCA2 201341Z 17003KT 29/17 A2991 RMK A01 T02870169  RH  049%=      5-min Rain = 0
KCA2 201342Z 17003KT 29/17 A2991 RMK A01 T02880170  RH  049%=      5-min Rain = 0
KCA2 201343Z 15003KT 29/17 A2991 RMK A01 T02890170  RH  049%=      5-min Rain = 0
KCA2 201344Z 16003KT 29/17 A2991 RMK A01 T02890169  RH  048%=      5-min Rain = 0
KCA2 201345Z 16003KT 29/17 A2991 RMK A01 T02900170  RH  048%=      5-min Rain = 0
KCA2 201346Z 16003KT 29/17 A2991 RMK A01 T02910169  RH  048%=      5-min Rain = 0
KCA2 201347Z 15004KT 29/17 A2991 RMK A01 T02920168  RH  047%=      5-min Rain = 0
KCA2 201348Z 14004KT 29/16 A2991 RMK A01 T02920162  RH  045%=      5-min Rain = 0
KCA2 201349Z 15004KT 29/17 A2991 RMK A01 T02930165  RH  046%=      5-min Rain = 0
KCA2 201350Z 16004KT 29/16 A2991 RMK A01 T02930162  RH  045%=      5-min Rain = 0
KCA2 201351Z 15005KT 29/16 A2991 RMK A01 T02940160  RH  044%=      5-min Rain = 0
KCA2 201352Z 14004KT 30/16 A2991 RMK A01 T02950161  RH  044%=      5-min Rain = 0
KCA2 201353Z 14004KT 30/16 A2991 RMK A01 T02950159  RH  044%=      5-min Rain = 0
KCA2 201354Z 15005KT 30/16 A2991 RMK A01 T02950160  RH  044%=      5-min Rain = 0
KCA2 201355Z 14005KT 30/16 A2991 RMK A01 T02950161  RH  044%=      5-min Rain = 0
KCA2 201356Z 14005KT 30/16 A2991 RMK A01 T02950161  RH  044%=      5-min Rain = 0
KCA2 201357Z 14005KT 30/16 A2991 RMK A01 T02950160  RH  044%=      5-min Rain = 0
KCA2 201358Z 15005KT 30/16 A2991 RMK A01 T02960161  RH  044%=      5-min Rain = 0
KCA2 201359Z 15004KT 30/16 A2991 RMK A01 T02960160  RH  044%=      5-min Rain = 0
KCA2 201400Z 15003KT 30/16 A2991 RMK A01 T02960163  RH  045%=      5-min Rain = 0
KCA2 201401Z 15005KT 30/16 A2991 RMK A01 T02970163  RH  044%=      5-min Rain = 0
KCA2 201402Z 15006KT 30/16 A2991 RMK A01 T02980160  RH  043%=      5-min Rain = 0
KCA2 201403Z 16006KT 30/16 A2991 RMK A01 T02980162  RH  044%=      5-min Rain = 0
KCA2 201404Z 14005KT 30/16 A2991 RMK A01 T02970163  RH  044%=      5-min Rain = 0
KCA2 201405Z 13005KT 30/16 A2991 RMK A01 T02980160  RH  043%=      5-min Rain = 0
KCA2 201406Z 13005KT 30/16 A2991 RMK A01 T02980161  RH  044%=      5-min Rain = 0
KCA2 201407Z 14006KT 30/16 A2991 RMK A01 T02980161  RH  044%=      5-min Rain = 0
KCA2 201408Z 14007KT 30/16 A2991 RMK A01 T02980159  RH  043%=      5-min Rain = 0
KCA2 201409Z 14006KT 30/16 A2991 RMK A01 T02980161  RH  044%=      5-min Rain = 0
KCA2 201410Z 14006KT 30/16 A2991 RMK A01 T02970160  RH  043%=      5-min Rain = 0
KCA2 201411Z 15006KT 30/16 A2991 RMK A01 T02970160  RH  043%=      5-min Rain = 0
KCA2 201412Z 14007KT 30/16 A2991 RMK A01 T02970161  RH  044%=      5-min Rain = 0
KCA2 201413Z 15006KT 30/16 A2991 RMK A01 T02980160  RH  043%=      5-min Rain = 0
KCA2 201414Z 15005KT 30/16 A2991 RMK A01 T02980161  RH  044%=      5-min Rain = 0
KCA2 201415Z 15005KT 30/16 A2991 RMK A01 T02980160  RH  043%=      5-min Rain = 0
KCA2 201416Z 15005KT 30/16 A2992 RMK A01 T02990161  RH  043%=      5-min Rain = 0
KCA2 201417Z 15006KT 30/16 A2992 RMK A01 T02990161  RH  043%=      5-min Rain = 0
KCA2 201418Z 13005KT 30/16 A2992 RMK A01 T03000161  RH  043%=      5-min Rain = 0
KCA2 201419Z 14005KT 30/16 A2992 RMK A01 T03000163  RH  043%=      5-min Rain = 0
KCA2 201420Z 13004KT 30/17 A2992 RMK A01 T03010165  RH  044%=      5-min Rain = 0
KCA2 201421Z 14005KT 30/16 A2992 RMK A01 T03020164  RH  043%=      5-min Rain = 0
KCA2 201422Z 13004KT 30/16 A2992 RMK A01 T03030164  RH  043%=      5-min Rain = 0
KCA2 201423Z 15004KT 30/16 A2992 RMK A01 T03040164  RH  043%=      5-min Rain = 0
KCA2 201424Z 14004KT 30/17 A2992 RMK A01 T03040165  RH  043%=      5-min Rain = 0
KCA2 201425Z 14005KT 31/16 A2992 RMK A01 T03050163  RH  043%=      5-min Rain = 0
KCA2 201426Z 13005KT 31/17 A2992 RMK A01 T03050165  RH  043%=      5-min Rain = 0
KCA2 201427Z 13005KT 31/16 A2992 RMK A01 T03050163  RH  043%=      5-min Rain = 0
KCA2 201428Z 15005KT 30/16 A2992 RMK A01 T03040164  RH  043%=      5-min Rain = 0
KCA2 201429Z 16005KT 30/16 A2992 RMK A01 T03040164  RH  043%=      5-min Rain = 0
KCA2 201430Z 15005KT 31/16 A2992 RMK A01 T03050163  RH  042%=      5-min Rain = 0
KCA2 201431Z 13005KT 31/16 A2992 RMK A01 T03060164  RH  043%=      5-min Rain = 0
KCA2 201432Z 12006KT 31/16 A2992 RMK A01 T03060161  RH  042%=      5-min Rain = 0
KCA2 201433Z 14006KT 31/16 A2992 RMK A01 T03060163  RH  042%=      5-min Rain = 0
KCA2 201434Z 15006KT 31/16 A2991 RMK A01 T03050163  RH  042%=      5-min Rain = 0
KCA2 201435Z 14005KT 31/16 A2991 RMK A01 T03050164  RH  043%=      5-min Rain = 0
KCA2 201436Z 14006KT 31/16 A2991 RMK A01 T03060160  RH  042%=      5-min Rain = 0
KCA2 201437Z 14005KT 31/16 A2992 RMK A01 T03060158  RH  041%=      5-min Rain = 0
KCA2 201438Z 14004KT 31/16 A2992 RMK A01 T03060162  RH  042%=      5-min Rain = 0
KCA2 201439Z 13006KT 31/16 A2992 RMK A01 T03070160  RH  041%=      5-min Rain = 0
KCA2 201440Z 13006KT 31/16 A2992 RMK A01 T03060161  RH  041%=      5-min Rain = 0
KCA2 201441Z 14006KT 31/16 A2992 RMK A01 T03060163  RH  042%=      5-min Rain = 0
KCA2 201442Z 14006KT 31/16 A2992 RMK A01 T03060161  RH  041%=      5-min Rain = 0
KCA2 201443Z 14006KT 31/16 A2992 RMK A01 T03070161  RH  042%=      5-min Rain = 0
KCA2 201444Z 14007KT 31/16 A2992 RMK A01 T03070159  RH  041%=      5-min Rain = 0
KCA2 201445Z 14006KT 31/16 A2992 RMK A01 T03070160  RH  041%=      5-min Rain = 0
KCA2 201446Z 15006KT 31/16 A2992 RMK A01 T03060161  RH  042%=      5-min Rain = 0
KCA2 201447Z 15006KT 31/16 A2992 RMK A01 T03070162  RH  042%=      5-min Rain = 0
KCA2 201448Z 15007KT 31/16 A2991 RMK A01 T03080162  RH  041%=      5-min Rain = 0
KCA2 201449Z 14008KT 31/16 A2991 RMK A01 T03080162  RH  041%=      5-min Rain = 0
KCA2 201450Z 13007KT 31/16 A2991 RMK A01 T03070163  RH  042%=      5-min Rain = 0
KCA2 201451Z 13007KT 31/16 A2991 RMK A01 T03070163  RH  042%=      5-min Rain = 0
KCA2 201452Z 13008KT 31/16 A2991 RMK A01 T03060163  RH  042%=      5-min Rain = 0
KCA2 201453Z 13007KT 31/16 A2991 RMK A01 T03070163  RH  042%=      5-min Rain = 0
KCA2 201454Z 14006KT 31/16 A2991 RMK A01 T03080164  RH  042%=      5-min Rain = 0
KCA2 201455Z 14006KT 31/16 A2991 RMK A01 T03080164  RH  042%=      5-min Rain = 0
KCA2 201456Z 14006KT 31/16 A2991 RMK A01 T03090164  RH  042%=      5-min Rain = 0
KCA2 201457Z 15006KT 31/16 A2991 RMK A01 T03090163  RH  041%=      5-min Rain = 0
KCA2 201458Z 15005KT 31/16 A2991 RMK A01 T03090163  RH  041%=      5-min Rain = 0
KCA2 201459Z 16006KT 31/16 A2991 RMK A01 T03090164  RH  042%=      5-min Rain = 0
KCA2 201500Z 14007KT 31/16 A2991 RMK A01 T03110162  RH  041%=      5-min Rain = 0
KCA2 201501Z 15006KT 31/16 A2991 RMK A01 T03110162  RH  041%=      5-min Rain = 0
KCA2 201502Z 14005KT 31/16 A2991 RMK A01 T03100163  RH  041%=      5-min Rain = 0
KCA2 201503Z 16003KT 31/16 A2991 RMK A01 T03100164  RH  041%=      5-min Rain = 0
KCA2 201504Z 16006KT 31/17 A2991 RMK A01 T03110165  RH  041%=      5-min Rain = 0
KCA2 201505Z 16005KT 31/16 A2991 RMK A01 T03130164  RH  041%=      5-min Rain = 0
KCA2 201506Z 16005KT 31/16 A2991 RMK A01 T03120164  RH  041%=      5-min Rain = 0
KCA2 201507Z 14005KT 31/17 A2991 RMK A01 T03120165  RH  041%=      5-min Rain = 0
KCA2 201508Z 11006KT 31/16 A2991 RMK A01 T03140162  RH  040%=      5-min Rain = 0
KCA2 201509Z 13006KT 31/16 A2991 RMK A01 T03140163  RH  040%=      5-min Rain = 0
KCA2 201510Z 14006KT 31/16 A2991 RMK A01 T03140164  RH  041%=      5-min Rain = 0
KCA2 201511Z 13005KT 31/16 A2991 RMK A01 T03140164  RH  040%=      5-min Rain = 0
KCA2 201512Z 13006KT 31/16 A2991 RMK A01 T03140164  RH  040%=      5-min Rain = 0
KCA2 201513Z 12005KT 31/16 A2991 RMK A01 T03140164  RH  040%=      5-min Rain = 0
KCA2 201514Z 14006KT 31/16 A2991 RMK A01 T03140163  RH  040%=      5-min Rain = 0
KCA2 201515Z 13005KT 32/16 A2991 RMK A01 T03160164  RH  040%=      5-min Rain = 0
KCA2 201516Z 14006KT 32/16 A2991 RMK A01 T03170163  RH  040%=      5-min Rain = 0
KCA2 201517Z 13008KT 32/16 A2991 RMK A01 T03160163  RH  040%=      5-min Rain = 0
KCA2 201518Z 13008KT 32/16 A2991 RMK A01 T03160162  RH  039%=      5-min Rain = 0
KCA2 201519Z 12006KT 32/16 A2991 RMK A01 T03160162  RH  040%=      5-min Rain = 0
KCA2 201520Z 14006KT 32/16 A2991 RMK A01 T03160164  RH  040%=      5-min Rain = 0
KCA2 201521Z 14005KT 32/17 A2991 RMK A01 T03170166  RH  040%=      5-min Rain = 0
KCA2 201522Z 12007KT 32/17 A2991 RMK A01 T03210166  RH  039%=      5-min Rain = 0
KCA2 201523Z 12007KT 32/16 A2991 RMK A01 T03220162  RH  038%=      5-min Rain = 0
KCA2 201524Z 13006KT 32/16 A2991 RMK A01 T03210163  RH  039%=      5-min Rain = 0
KCA2 201525Z 13005KT 32/16 A2991 RMK A01 T03200162  RH  039%=      5-min Rain = 0
KCA2 201526Z 14005KT 32/16 A2991 RMK A01 T03200163  RH  039%=      5-min Rain = 0
KCA2 201527Z 15005KT 32/16 A2991 RMK A01 T03200164  RH  039%=      5-min Rain = 0
KCA2 201528Z 15006KT 32/17 A299 RMK A01 T03210165  RH  039%=      5-min Rain = 0
KCA2 201529Z 14006KT 32/17 A2991 RMK A01 T03220165  RH  039%=      5-min Rain = 0
KCA2 201530Z 15006KT 32/16 A2991 RMK A01 T03230164  RH  039%=      5-min Rain = 0
KCA2 201531Z 16006KT 32/16 A299 RMK A01 T03220164  RH  039%=      5-min Rain = 0
KCA2 201532Z 15007KT 32/16 A299 RMK A01 T03220163  RH  038%=      5-min Rain = 0
KCA2 201533Z 14005KT 32/17 A2991 RMK A01 T03240165  RH  038%=      5-min Rain = 0
KCA2 201534Z 13007KT 33/16 A2991 RMK A01 T03260163  RH  038%=      5-min Rain = 0
KCA2 201535Z 14007KT 33/16 A2991 RMK A01 T03250162  RH  038%=      5-min Rain = 0
KCA2 201536Z 13006KT 32/16 A2991 RMK A01 T03230162  RH  038%=      5-min Rain = 0
KCA2 201537Z 13006KT 32/16 A2991 RMK A01 T03220161  RH  038%=      5-min Rain = 0
KCA2 201538Z 12007KT 32/16 A299 RMK A01 T03220161  RH  038%=      5-min Rain = 0
KCA2 201539Z 12006KT 32/16 A299 RMK A01 T03230159  RH  037%=      5-min Rain = 0
KCA2 201540Z 13006KT 32/16 A299 RMK A01 T03230163  RH  038%=      5-min Rain = 0
KCA2 201541Z 16007KT 32/16 A299 RMK A01 T03240164  RH  038%=      5-min Rain = 0
KCA2 201542Z 15007KT 33/16 A299 RMK A01 T03250164  RH  038%=      5-min Rain = 0
KCA2 201543Z 16007KT 33/16 A299 RMK A01 T03260164  RH  038%=      5-min Rain = 0
KCA2 201544Z 16007KT 33/17 A299 RMK A01 T03260165  RH  038%=      5-min Rain = 0
KCA2 201545Z 16006KT 33/16 A299 RMK A01 T03270163  RH  037%=      5-min Rain = 0
KCA2 201546Z 16006KT 33/16 A299 RMK A01 T03270163  RH  037%=      5-min Rain = 0
KCA2 201547Z 15006KT 33/17 A299 RMK A01 T03260165  RH  038%=      5-min Rain = 0
KCA2 201548Z 13005KT 33/16 A299 RMK A01 T03260163  RH  038%=      5-min Rain = 0
KCA2 201549Z 11005KT 33/16 A299 RMK A01 T03280164  RH  038%=      5-min Rain = 0
KCA2 201550Z 16005KT 33/17 A299 RMK A01 T03300165  RH  037%=      5-min Rain = 0
KCA2 201551Z 15006KT 33/17 A299 RMK A01 T03330166  RH  037%=      5-min Rain = 0
KCA2 201552Z 14006KT 33/16 A299 RMK A01 T03340160  RH  035%=      5-min Rain = 0
KCA2 201553Z 16004KT 33/16 A299 RMK A01 T03330163  RH  036%=      5-min Rain = 0
KCA2 201554Z 15006KT 33/17 A299 RMK A01 T03330165  RH  037%=      5-min Rain = 0
KCA2 201555Z 14007KT 33/16 A299 RMK A01 T03340164  RH  036%=      5-min Rain = 0
KCA2 201556Z 15006KT 33/16 A299 RMK A01 T03340160  RH  035%=      5-min Rain = 0
KCA2 201557Z 15006KT 33/16 A299 RMK A01 T03330160  RH  036%=      5-min Rain = 0
KCA2 201558Z 16007KT 33/16 A299 RMK A01 T03320161  RH  036%=      5-min Rain = 0
KCA2 201559Z 16005KT 33/16 A299 RMK A01 T03310162  RH  036%=      5-min Rain = 0
KCA2 201600Z 15005KT 33/16 A299 RMK A01 T03320163  RH  036%=      5-min Rain = 0
KCA2 201601Z 14006KT 34/16 A299 RMK A01 T03350161  RH  035%=      5-min Rain = 0
KCA2 201602Z 12004KT 34/16 A299 RMK A01 T03360160  RH  035%=      5-min Rain = 0
KCA2 201603Z 13004KT 34/15 A299 RMK A01 T03380153  RH  033%=      5-min Rain = 0
KCA2 201604Z 17007KT 34/16 A299 RMK A01 T03390157  RH  034%=      5-min Rain = 0
KCA2 201605Z 17007KT 34/16 A299 RMK A01 T03390157  RH  034%=      5-min Rain = 0
KCA2 201606Z 16007KT 34/16 A299 RMK A01 T03370161  RH  035%=      5-min Rain = 0
KCA2 201607Z 14007KT 34/16 A299 RMK A01 T03370159  RH  035%=      5-min Rain = 0
KCA2 201608Z 14005KT 34/16 A299 RMK A01 T03380158  RH  034%=      5-min Rain = 0
KCA2 201609Z 14007KT 34/16 A299 RMK A01 T03380156  RH  034%=      5-min Rain = 0
KCA2 201610Z 16006KT 34/15 A299 RMK A01 T03380154  RH  033%=      5-min Rain = 0
KCA2 201611Z 15005KT 34/15 A299 RMK A01 T03370154  RH  033%=      5-min Rain = 0
KCA2 201612Z 13006KT 34/16 A299 RMK A01 T03370158  RH  034%=      5-min Rain = 0
KCA2 201613Z 13007KT 34/16 A299 RMK A01 T03370156  RH  034%=      5-min Rain = 0
KCA2 201614Z 14006KT 34/16 A299 RMK A01 T03370158  RH  034%=      5-min Rain = 0
KCA2 201615Z 14007KT 34/16 A299 RMK A01 T03390160  RH  034%=      5-min Rain = 0
KCA2 201616Z 13005KT 34/16 A299 RMK A01 T03400162  RH  035%=      5-min Rain = 0
KCA2 201617Z 14006KT 34/16 A299 RMK A01 T03400162  RH  035%=      5-min Rain = 0
KCA2 201618Z 14004KT 34/16 A299 RMK A01 T03420159  RH  034%=      5-min Rain = 0
KCA2 201619Z 15008KT 34/16 A299 RMK A01 T03420160  RH  034%=      5-min Rain = 0
KCA2 201620Z 14008KT 34/16 A299 RMK A01 T03420158  RH  033%=      5-min Rain = 0
KCA2 201621Z 14006KT 34/16 A299 RMK A01 T03400160  RH  034%=      5-min Rain = 0
KCA2 201622Z 16006KT 34/16 A299 RMK A01 T03410159  RH  034%=      5-min Rain = 0
KCA2 201623Z 16005KT 34/16 A299 RMK A01 T03430156  RH  033%=      5-min Rain = 0
KCA2 201624Z 15006KT 34/16 A299 RMK A01 T03420158  RH  033%=      5-min Rain = 0
KCA2 201625Z 15008KT 34/16 A299 RMK A01 T03440156  RH  033%=      5-min Rain = 0
KCA2 201626Z 15006KT 35/16 A299 RMK A01 T03450155  RH  032%=      5-min Rain = 0
KCA2 201627Z 15008KT 34/16 A299 RMK A01 T03440157  RH  033%=      5-min Rain = 0
KCA2 201628Z 14007KT 34/16 A299 RMK A01 T03430158  RH  033%=      5-min Rain = 0
KCA2 201629Z 14010KT 34/16 A299 RMK A01 T03440156  RH  033%=      5-min Rain = 0
KCA2 201630Z 14008KT 34/16 A299 RMK A01 T03440156  RH  032%=      5-min Rain = 0
KCA2 201631Z 14006KT 34/16 A299 RMK A01 T03440156  RH  033%=      5-min Rain = 0
KCA2 201632Z 14006KT 34/16 A299 RMK A01 T03440156  RH  033%=      5-min Rain = 0
KCA2 201633Z 15007KT 34/16 A299 RMK A01 T03440157  RH  033%=      5-min Rain = 0
KCA2 201634Z 15010KT 35/16 A299 RMK A01 T03460155  RH  032%=      5-min Rain = 0
KCA2 201635Z 14009KT 35/15 A299 RMK A01 T03450153  RH  032%=      5-min Rain = 0
KCA2 201636Z 17007KT 34/15 A299 RMK A01 T03420152  RH  032%=      5-min Rain = 0
KCA2 201637Z 16008KT 34/15 A299 RMK A01 T03410153  RH  032%=      5-min Rain = 0
KCA2 201638Z 15009KT 34/15 A299 RMK A01 T03420153  RH  032%=      5-min Rain = 0
KCA2 201639Z 14011KT 34/15 A299 RMK A01 T03430153  RH  032%=      5-min Rain = 0
KCA2 201640Z 14011KT 34/15 A299 RMK A01 T03440153  RH  032%=      5-min Rain = 0
KCA2 201641Z 14010KT 34/15 A299 RMK A01 T03420152  RH  032%=      5-min Rain = 0
KCA2 201642Z 13008KT 34/15 A299 RMK A01 T03430153  RH  032%=      5-min Rain = 0
KCA2 201643Z 14007KT 34/15 A299 RMK A01 T03440149  RH  031%=      5-min Rain = 0
KCA2 201644Z 15006KT 34/15 A299 RMK A01 T03430153  RH  032%=      5-min Rain = 0
KCA2 201645Z 15008KT 34/15 A299 RMK A01 T03440152  RH  032%=      5-min Rain = 0
KCA2 201646Z 17006KT 35/15 A299 RMK A01 T03450150  RH  031%=      5-min Rain = 0
KCA2 201647Z 15010KT 34/15 A2989 RMK A01 T03440152  RH  032%=      5-min Rain = 0
KCA2 201648Z 13010KT 35/15 A2989 RMK A01 T03450153  RH  032%=      5-min Rain = 0
KCA2 201649Z 13009KT 35/15 A2989 RMK A01 T03470153  RH  031%=      5-min Rain = 0
KCA2 201650Z 13007KT 35/15 A2989 RMK A01 T03460151  RH  031%=      5-min Rain = 0
KCA2 201651Z 16008KT 35/15 A2989 RMK A01 T03460153  RH  032%=      5-min Rain = 0
KCA2 201652Z 15006KT 35/15 A2989 RMK A01 T03470153  RH  032%=      5-min Rain = 0
KCA2 201653Z 16005KT 35/15 A2989 RMK A01 T03480153  RH  031%=      5-min Rain = 0
KCA2 201654Z 16006KT 35/15 A2989 RMK A01 T03490151  RH  031%=      5-min Rain = 0
KCA2 201655Z 17006KT 35/15 A2989 RMK A01 T03500154  RH  031%=      5-min Rain = 0
KCA2 201656Z 15010KT 35/15 A2989 RMK A01 T03520152  RH  030%=      5-min Rain = 0
KCA2 201657Z 16008KT 35/15 A2989 RMK A01 T03520152  RH  030%=      5-min Rain = 0
KCA2 201658Z 15007KT 35/15 A2989 RMK A01 T03480150  RH  031%=      5-min Rain = 0
KCA2 201659Z 15005KT 35/15 A2989 RMK A01 T03460151  RH  031%=      5-min Rain = 0
KCA2 201700Z 13006KT 35/15 A2989 RMK A01 T03460150  RH  031%=      5-min Rain = 0
KCA2 201701Z 13005KT 35/15 A2989 RMK A01 T03470148  RH  030%=      5-min Rain = 0
KCA2 201702Z 12003KT 35/15 A2989 RMK A01 T03460149  RH  031%=      5-min Rain = 0
KCA2 201703Z 11002KT 35/15 A2989 RMK A01 T03450148  RH  031%=      5-min Rain = 0
KCA2 201704Z 14005KT 35/15 A2989 RMK A01 T03460152  RH  031%=      5-min Rain = 0
KCA2 201705Z 16006KT 35/15 A2989 RMK A01 T03480151  RH  031%=      5-min Rain = 0
KCA2 201706Z 18007KT 35/15 A2989 RMK A01 T03480151  RH  031%=      5-min Rain = 0
KCA2 201707Z 18006KT 35/15 A2989 RMK A01 T03490152  RH  031%=      5-min Rain = 0
KCA2 201708Z 18005KT 35/15 A2989 RMK A01 T03490151  RH  031%=      5-min Rain = 0
KCA2 201709Z 16007KT 35/15 A2989 RMK A01 T03480151  RH  031%=      5-min Rain = 0
KCA2 201710Z 15007KT 35/15 A2989 RMK A01 T03490150  RH  031%=      5-min Rain = 0
KCA2 201711Z 13007KT 35/15 A2989 RMK A01 T03510151  RH  030%=      5-min Rain = 0
KCA2 201712Z 11008KT 35/15 A2989 RMK A01 T03530151  RH  030%=      5-min Rain = 0
KCA2 201713Z 13005KT 35/15 A2989 RMK A01 T03540153  RH  030%=      5-min Rain = 0
KCA2 201714Z 12006KT 36/15 A2989 RMK A01 T03570152  RH  029%=      5-min Rain = 0
KCA2 201715Z 11007KT 36/15 A2989 RMK A01 T03560152  RH  030%=      5-min Rain = 0
KCA2 201716Z 11006KT 36/15 A2989 RMK A01 T03550152  RH  030%=      5-min Rain = 0
KCA2 201717Z 13005KT 36/15 A2989 RMK A01 T03550151  RH  030%=      5-min Rain = 0
KCA2 201718Z 15005KT 36/15 A2989 RMK A01 T03550152  RH  030%=      5-min Rain = 0
KCA2 201719Z 17008KT 36/15 A2988 RMK A01 T03560150  RH  029%=      5-min Rain = 0
KCA2 201720Z 18008KT 36/15 A2988 RMK A01 T03570148  RH  029%=      5-min Rain = 0
KCA2 201721Z 17007KT 36/15 A2988 RMK A01 T03560149  RH  029%=      5-min Rain = 0
KCA2 201722Z 16005KT 36/15 A2988 RMK A01 T03560148  RH  029%=      5-min Rain = 0
KCA2 201723Z 19003KT 36/15 A2988 RMK A01 T03560147  RH  029%=      5-min Rain = 0
KCA2 201724Z 21003KT 36/15 A2988 RMK A01 T03550146  RH  029%=      5-min Rain = 0
KCA2 201725Z 15003KT 35/15 A2988 RMK A01 T03540148  RH  029%=      5-min Rain = 0
KCA2 201726Z 12008KT 36/15 A2988 RMK A01 T03550149  RH  029%=      5-min Rain = 0
KCA2 201727Z 12006KT 36/15 A2988 RMK A01 T03550149  RH  029%=      5-min Rain = 0
KCA2 201728Z 09006KT 36/15 A2988 RMK A01 T03550147  RH  029%=      5-min Rain = 0
KCA2 201729Z 08005KT 35/15 A2988 RMK A01 T03520145  RH  029%=      5-min Rain = 0
KCA2 201730Z 10005KT 35/15 A2988 RMK A01 T03500146  RH  029%=      5-min Rain = 0
KCA2 201731Z 11005KT 35/15 A2988 RMK A01 T03500145  RH  029%=      5-min Rain = 0
KCA2 201732Z 10004KT 35/15 A2988 RMK A01 T03520149  RH  030%=      5-min Rain = 0
KCA2 201733Z 08004KT 36/15 A2988 RMK A01 T03570148  RH  029%=      5-min Rain = 0
KCA2 201734Z 10004KT 36/15 A2988 RMK A01 T03580145  RH  028%=      5-min Rain = 0
KCA2 201735Z 12005KT 36/15 A2988 RMK A01 T03580150  RH  029%=      5-min Rain = 0
KCA2 201736Z 14005KT 36/15 A2988 RMK A01 T03620150  RH  028%=      5-min Rain = 0
KCA2 201737Z 17005KT 36/14 A2988 RMK A01 T03630144  RH  027%=      5-min Rain = 0
KCA2 201738Z 16002KT 36/15 A2988 RMK A01 T03600145  RH  028%=      5-min Rain = 0
KCA2 201739Z 08004KT 36/15 A2988 RMK A01 T03610149  RH  028%=      5-min Rain = 0
KCA2 201740Z 11005KT 37/15 A2988 RMK A01 T03650150  RH  028%=      5-min Rain = 0
KCA2 201741Z 13005KT 37/15 A2988 RMK A01 T03650149  RH  028%=      5-min Rain = 0
KCA2 201742Z 10006KT 37/15 A2988 RMK A01 T03650147  RH  027%=      5-min Rain = 0
KCA2 201743Z 08005KT 36/14 A2988 RMK A01 T03630141  RH  027%=      5-min Rain = 0
KCA2 201744Z 09004KT 36/15 A2988 RMK A01 T03620145  RH  027%=      5-min Rain = 0
KCA2 201745Z 08005KT 36/15 A2988 RMK A01 T03640147  RH  028%=      5-min Rain = 0
KCA2 201746Z 08006KT 36/14 A2988 RMK A01 T03640144  RH  027%=      5-min Rain = 0
KCA2 201747Z 08004KT 36/14 A2988 RMK A01 T03600142  RH  027%=      5-min Rain = 0
KCA2 201748Z 13003KT 36/14 A2988 RMK A01 T03580142  RH  028%=      5-min Rain = 0
KCA2 201749Z 11003KT 36/14 A2988 RMK A01 T03580144  RH  028%=      5-min Rain = 0
KCA2 201750Z 07003KT 36/14 A2988 RMK A01 T03590144  RH  028%=      5-min Rain = 0
KCA2 201751Z 09006KT 36/14 A2988 RMK A01 T03610143  RH  027%=      5-min Rain = 0
KCA2 201752Z 11007KT 36/14 A2988 RMK A01 T03610144  RH  027%=      5-min Rain = 0
KCA2 201753Z 13007KT 36/15 A2988 RMK A01 T03630146  RH  027%=      5-min Rain = 0
KCA2 201754Z 10007KT 37/14 A2987 RMK A01 T03650144  RH  027%=      5-min Rain = 0
KCA2 201755Z 10005KT 36/14 A2987 RMK A01 T03640144  RH  027%=      5-min Rain = 0
KCA2 201756Z 09005KT 36/14 A2987 RMK A01 T03640141  RH  026%=      5-min Rain = 0
KCA2 201757Z 10004KT 36/14 A2987 RMK A01 T03640137  RH  026%=      5-min Rain = 0
KCA2 201758Z 11005KT 37/14 A2987 RMK A01 T03650139  RH  026%=      5-min Rain = 0
KCA2 201759Z 12005KT 37/14 A2987 RMK A01 T03670136  RH  025%=      5-min Rain = 0
KCA2 201800Z 13005KT 37/14 A2987 RMK A01 T03670135  RH  025%=      5-min Rain = 0
KCA2 201801Z 12006KT 37/13 A2987 RMK A01 T03670133  RH  025%=      5-min Rain = 0
KCA2 201802Z 11005KT 37/13 A2987 RMK A01 T03660131  RH  025%=      5-min Rain = 0
KCA2 201803Z 11005KT 37/13 A2987 RMK A01 T03660133  RH  025%=      5-min Rain = 0
KCA2 201804Z 10006KT 37/13 A2987 RMK A01 T03660134  RH  025%=      5-min Rain = 0
KCA2 201805Z 09004KT 37/13 A2987 RMK A01 T03660133  RH  025%=      5-min Rain = 0
KCA2 201806Z 09004KT 36/13 A2987 RMK A01 T03640134  RH  025%=      5-min Rain = 0
KCA2 201807Z 10003KT 37/13 A2987 RMK A01 T03670133  RH  025%=      5-min Rain = 0
KCA2 201808Z 13007KT 37/13 A2987 RMK A01 T03680132  RH  024%=      5-min Rain = 0
KCA2 201809Z 14006KT 37/13 A2987 RMK A01 T03700132  RH  024%=      5-min Rain = 0
KCA2 201810Z 14003KT 37/13 A2987 RMK A01 T03710130  RH  024%=      5-min Rain = 0
KCA2 201811Z 14004KT 37/13 A2987 RMK A01 T03700133  RH  024%=      5-min Rain = 0
KCA2 201812Z 17004KT 37/13 A2987 RMK A01 T03720131  RH  024%=      5-min Rain = 0
KCA2 201813Z 18004KT 37/12 A2987 RMK A01 T03720119  RH  022%=      5-min Rain = 0
KCA2 201814Z 21003KT 37/12 A2987 RMK A01 T03710120  RH  022%=      5-min Rain = 0
KCA2 201815Z 24005KT 37/12 A2987 RMK A01 T03700118  RH  022%=      5-min Rain = 0
KCA2 201816Z 25004KT 37/12 A2987 RMK A01 T03700117  RH  022%=      5-min Rain = 0
KCA2 201817Z 23005KT 37/12 A2987 RMK A01 T03690121  RH  023%=      5-min Rain = 0
KCA2 201818Z 25005KT 37/12 A2987 RMK A01 T03700120  RH  022%=      5-min Rain = 0
KCA2 201819Z 27004KT 37/12 A2986 RMK A01 T03700118  RH  022%=      5-min Rain = 0
KCA2 201820Z 29004KT 37/12 A2986 RMK A01 T03690117  RH  022%=      5-min Rain = 0
KCA2 201821Z 29006KT 37/12 A2986 RMK A01 T03680117  RH  022%=      5-min Rain = 0
KCA2 201822Z 29005KT 37/12 A2986 RMK A01 T03660120  RH  023%=      5-min Rain = 0
KCA2 201823Z 29004KT 37/12 A2986 RMK A01 T03660124  RH  023%=      5-min Rain = 0
KCA2 201824Z 27003KT 37/13 A2986 RMK A01 T03670129  RH  024%=      5-min Rain = 0
KCA2 201825Z 24002KT 37/13 A2986 RMK A01 T03710129  RH  024%=      5-min Rain = 0
KCA2 201826Z 19004KT 37/13 A2986 RMK A01 T03740131  RH  024%=      5-min Rain = 0
KCA2 201827Z 18007KT 38/12 A2986 RMK A01 T03750121  RH  022%=      5-min Rain = 0
KCA2 201828Z 17005KT 38/12 A2986 RMK A01 T03770119  RH  021%=      5-min Rain = 0
KCA2 201829Z 13004KT 38/12 A2986 RMK A01 T03750119  RH  022%=      5-min Rain = 0
KCA2 201830Z 13001KT 37/12 A2986 RMK A01 T03730119  RH  022%=      5-min Rain = 0
KCA2 201831Z 18000KT 37/12 A2986 RMK A01 T03730120  RH  022%=      5-min Rain = 0
KCA2 201832Z 10002KT 37/12 A2986 RMK A01 T03740122  RH  022%=      5-min Rain = 0
KCA2 201833Z 16007KT 38/13 A2986 RMK A01 T03750125  RH  022%=      5-min Rain = 0
KCA2 201834Z 17006KT 38/12 A2986 RMK A01 T03760123  RH  022%=      5-min Rain = 0
KCA2 201835Z 16005KT 38/12 A2986 RMK A01 T03760121  RH  022%=      5-min Rain = 0
KCA2 201836Z 17003KT 37/12 A2986 RMK A01 T03740121  RH  022%=      5-min Rain = 0
KCA2 201837Z 19002KT 37/12 A2986 RMK A01 T03740122  RH  022%=      5-min Rain = 0
KCA2 201838Z 19001KT 37/12 A2986 RMK A01 T03730119  RH  022%=      5-min Rain = 0
KCA2 201839Z 35001KT 37/12 A2986 RMK A01 T03720116  RH  022%=      5-min Rain = 0
KCA2 201840Z 34001KT 37/12 A2986 RMK A01 T03730116  RH  021%=      5-min Rain = 0
KCA2 201841Z 32003KT 37/11 A2985 RMK A01 T03730114  RH  021%=      5-min Rain = 0
KCA2 201842Z 31004KT 37/11 A2985 RMK A01 T03730111  RH  021%=      5-min Rain = 0
KCA2 201843Z 34003KT 37/11 A2985 RMK A01 T03720113  RH  021%=      5-min Rain = 0
KCA2 201844Z 30002KT 37/11 A2985 RMK A01 T03710113  RH  021%=      5-min Rain = 0
KCA2 201845Z 09002KT 37/12 A2985 RMK A01 T03710115  RH  022%=      5-min Rain = 0
KCA2 201846Z 17004G9KT 37/12 A2985 RMK A01 T03720115  RH  021%=      5-min Rain = 0
KCA2 201847Z 18004KT 38/12 A2985 RMK A01 T03750116  RH  021%=      5-min Rain = 0
KCA2 201848Z 15004KT 38/12 A2985 RMK A01 T03750115  RH  021%=      5-min Rain = 0
KCA2 201849Z 18004KT 38/12 A2985 RMK A01 T03780115  RH  021%=      5-min Rain = 0
KCA2 201850Z 19004KT 38/12 A2985 RMK A01 T03780117  RH  021%=      5-min Rain = 0
KCA2 201851Z 20004KT 38/12 A2985 RMK A01 T03780117  RH  021%=      5-min Rain = 0
KCA2 201852Z 23004KT 38/12 A2985 RMK A01 T03780119  RH  021%=      5-min Rain = 0
KCA2 201853Z 23005KT 38/12 A2985 RMK A01 T03780119  RH  021%=      5-min Rain = 0
KCA2 201854Z 21002KT 38/12 A2985 RMK A01 T03770118  RH  021%=      5-min Rain = 0
KCA2 201855Z 29001KT 38/12 A2985 RMK A01 T03780118  RH  021%=      5-min Rain = 0
KCA2 201856Z 29001KT 38/12 A2985 RMK A01 T03800121  RH  021%=      5-min Rain = 0
KCA2 201857Z 14003KT 38/12 A2985 RMK A01 T03820121  RH  021%=      5-min Rain = 0
KCA2 201858Z 13006KT 39/13 A2985 RMK A01 T03850127  RH  022%=      5-min Rain = 0
KCA2 201859Z 12005KT 39/13 A2985 RMK A01 T03870125  RH  021%=      5-min Rain = 0
KCA2 201900Z 11006KT 39/12 A2984 RMK A01 T03860124  RH  021%=      5-min Rain = 0
KCA2 201901Z 11007KT 38/12 A2984 RMK A01 T03840123  RH  021%=      5-min Rain = 0
KCA2 201902Z 11006KT 38/13 A2984 RMK A01 T03830125  RH  021%=      5-min Rain = 0
KCA2 201903Z 11005KT 38/12 A2984 RMK A01 T03840124  RH  021%=      5-min Rain = 0
KCA2 201904Z 12005KT 38/12 A2984 RMK A01 T03830124  RH  021%=      5-min Rain = 0
KCA2 201905Z 14004KT 38/12 A2984 RMK A01 T03820124  RH  021%=      5-min Rain = 0
KCA2 201906Z 16004KT 38/12 A2984 RMK A01 T03810123  RH  021%=      5-min Rain = 0
KCA2 201907Z 18003KT 38/12 A2984 RMK A01 T03810123  RH  021%=      5-min Rain = 0
KCA2 201908Z 17003KT 38/12 A2984 RMK A01 T03810123  RH  021%=      5-min Rain = 0
KCA2 201909Z 19004KT 38/13 A2984 RMK A01 T03800125  RH  022%=      5-min Rain = 0
KCA2 201910Z 16004KT 38/12 A2984 RMK A01 T03790124  RH  022%=      5-min Rain = 0
KCA2 201911Z 14004KT 38/13 A2984 RMK A01 T03790126  RH  022%=      5-min Rain = 0
KCA2 201912Z 10003KT 38/13 A2984 RMK A01 T03800126  RH  022%=      5-min Rain = 0
KCA2 201913Z 09002KT 38/12 A2984 RMK A01 T03800124  RH  022%=      5-min Rain = 0
KCA2 201914Z 09003KT 38/12 A2984 RMK A01 T03780122  RH  022%=      5-min Rain = 0
KCA2 201915Z 09002KT 38/12 A2984 RMK A01 T03760121  RH  022%=      5-min Rain = 0
KCA2 201916Z 05002KT 38/12 A2984 RMK A01 T03750121  RH  022%=      5-min Rain = 0
KCA2 201917Z 03002KT 38/12 A2984 RMK A01 T03750122  RH  022%=      5-min Rain = 0
KCA2 201918Z 02001KT 38/12 A2984 RMK A01 T03760124  RH  022%=      5-min Rain = 0
KCA2 201919Z 16001KT 38/12 A2984 RMK A01 T03770124  RH  022%=      5-min Rain = 0
KCA2 201920Z 15002KT 38/13 A2984 RMK A01 T03790126  RH  022%=      5-min Rain = 0
KCA2 201921Z 17001KT 38/13 A2983 RMK A01 T03820125  RH  022%=      5-min Rain = 0
KCA2 201922Z 11002KT 38/13 A2983 RMK A01 T03840125  RH  021%=      5-min Rain = 0
KCA2 201923Z 13006KT 39/13 A2983 RMK A01 T03850126  RH  021%=      5-min Rain = 0
KCA2 201924Z 12005KT 39/13 A2983 RMK A01 T03850126  RH  021%=      5-min Rain = 0
KCA2 201925Z 14002KT 39/12 A2983 RMK A01 T03850124  RH  021%=      5-min Rain = 0
KCA2 201926Z 18003KT 39/13 A2983 RMK A01 T03850128  RH  022%=      5-min Rain = 0
KCA2 201927Z 19005KT 39/13 A2983 RMK A01 T03890128  RH  021%=      5-min Rain = 0
KCA2 201928Z 19006KT 39/13 A2983 RMK A01 T03920128  RH  021%=      5-min Rain = 0
KCA2 201929Z 18005KT 39/13 A2983 RMK A01 T03930130  RH  021%=      5-min Rain = 0
KCA2 201930Z 19005KT 40/13 A2983 RMK A01 T03950126  RH  020%=      5-min Rain = 0
KCA2 201931Z 17003KT 39/12 A2983 RMK A01 T03930121  RH  020%=      5-min Rain = 0
KCA2 201932Z 17001KT 39/13 A2983 RMK A01 T03900125  RH  021%=      5-min Rain = 0
KCA2 201933Z 24001KT 39/12 A2983 RMK A01 T03890121  RH  020%=      5-min Rain = 0
KCA2 201934Z 02001KT 39/12 A2983 RMK A01 T03880122  RH  021%=      5-min Rain = 0
KCA2 201935Z 03003KT 39/12 A2983 RMK A01 T03880123  RH  021%=      5-min Rain = 0
KCA2 201936Z 01003KT 39/12 A2983 RMK A01 T03880122  RH  021%=      5-min Rain = 0
KCA2 201937Z 36004KT 39/12 A2982 RMK A01 T03870124  RH  021%=      5-min Rain = 0
KCA2 201938Z 01003KT 39/12 A2983 RMK A01 T03880124  RH  021%=      5-min Rain = 0
KCA2 201939Z 08001KT 39/12 A2983 RMK A01 T03900123  RH  020%=      5-min Rain = 0
KCA2 201940Z 14002KT 39/13 A2983 RMK A01 T03920126  RH  021%=      5-min Rain = 0
KCA2 201941Z 13002KT 39/13 A2982 RMK A01 T03940127  RH  020%=      5-min Rain = 0
KCA2 201942Z 15004KT 40/13 A2982 RMK A01 T03960127  RH  020%=      5-min Rain = 0
KCA2 201943Z 17008KT 40/13 A2982 RMK A01 T03970130  RH  021%=      5-min Rain = 0
KCA2 201944Z 17008KT 40/12 A2982 RMK A01 T03980124  RH  020%=      5-min Rain = 0
KCA2 201945Z 15008KT 40/13 A2982 RMK A01 T03950127  RH  020%=      5-min Rain = 0
KCA2 201946Z 18007KT 40/13 A2982 RMK A01 T03950126  RH  020%=      5-min Rain = 0
KCA2 201947Z 18006KT 39/12 A2982 RMK A01 T03930122  RH  020%=      5-min Rain = 0
KCA2 201948Z 17004KT 39/12 A2982 RMK A01 T03920122  RH  020%=      5-min Rain = 0
KCA2 201949Z 18005KT 39/12 A2982 RMK A01 T03930123  RH  020%=      5-min Rain = 0
KCA2 201950Z 16004KT 39/12 A2982 RMK A01 T03920122  RH  020%=      5-min Rain = 0
KCA2 201951Z 14003KT 39/12 A2982 RMK A01 T03910119  RH  020%=      5-min Rain = 0
KCA2 201952Z 14000KT 39/11 A2982 RMK A01 T03900114  RH  019%=      5-min Rain = 0
KCA2 201953Z 15000KT 39/11 A2982 RMK A01 T03890114  RH  019%=      5-min Rain = 0
KCA2 201954Z 20005G10KT 39/12 A2982 RMK A01 T03900119  RH  020%=      5-min Rain = 0
KCA2 201955Z 23006KT 40/12 A2982 RMK A01 T03950124  RH  020%=      5-min Rain = 0
KCA2 201956Z 20005KT 40/12 A2982 RMK A01 T03980124  RH  020%=      5-min Rain = 0
KCA2 201957Z 24003KT 40/12 A2982 RMK A01 T04000121  RH  019%=      5-min Rain = 0
KCA2 201958Z 20005KT 40/12 A2982 RMK A01 T03980120  RH  019%=      5-min Rain = 0
KCA2 201959Z 20005KT 40/12 A2982 RMK A01 T03980118  RH  019%=      5-min Rain = 0
KCA2 202000Z 18005KT 40/12 A2982 RMK A01 T03970120  RH  019%=      5-min Rain = 0
KCA2 202001Z 20002KT 40/12 A2982 RMK A01 T03980117  RH  019%=      5-min Rain = 0
KCA2 202002Z 36002KT 40/12 A2982 RMK A01 T03970124  RH  020%=      5-min Rain = 0
KCA2 202003Z 34002KT 40/13 A2982 RMK A01 T03950127  RH  020%=      5-min Rain = 0
KCA2 202004Z 32003KT 40/13 A2982 RMK A01 T03950127  RH  020%=      5-min Rain = 0
KCA2 202005Z 29002KT 40/13 A2982 RMK A01 T03950131  RH  021%=      5-min Rain = 0
KCA2 202006Z 29002KT 40/13 A2981 RMK A01 T03960130  RH  021%=      5-min Rain = 0
KCA2 202007Z 24001KT 40/13 A2981 RMK A01 T03980127  RH  020%=      5-min Rain = 0
KCA2 202008Z 17003KT 40/13 A2981 RMK A01 T03980127  RH  020%=      5-min Rain = 0
KCA2 202009Z 15006KT 40/13 A2981 RMK A01 T03990125  RH  020%=      5-min Rain = 0
KCA2 202010Z 15004KT 40/12 A2981 RMK A01 T03990122  RH  019%=      5-min Rain = 0
KCA2 202011Z 14004KT 40/12 A2981 RMK A01 T03980123  RH  020%=      5-min Rain = 0
KCA2 202012Z 15006KT 40/12 A2981 RMK A01 T03980124  RH  020%=      5-min Rain = 0
KCA2 202013Z 16004KT 40/13 A2981 RMK A01 T03980125  RH  020%=      5-min Rain = 0
KCA2 202014Z 20002KT 40/13 A2981 RMK A01 T03960125  RH  020%=      5-min Rain = 0
KCA2 202015Z 11002KT 39/12 A2981 RMK A01 T03930123  RH  020%=      5-min Rain = 0
KCA2 202016Z 08005KT 39/12 A2981 RMK A01 T03920123  RH  020%=      5-min Rain = 0
KCA2 202017Z 10005KT 39/12 A2981 RMK A01 T03920123  RH  020%=      5-min Rain = 0
KCA2 202018Z 09004KT 39/13 A2981 RMK A01 T03930126  RH  020%=      5-min Rain = 0
KCA2 202019Z 08003KT 40/12 A2981 RMK A01 T03950121  RH  020%=      5-min Rain = 0
KCA2 202020Z 12004KT 39/12 A2981 RMK A01 T03930123  RH  020%=      5-min Rain = 0
KCA2 202021Z 10003KT 39/12 A2981 RMK A01 T03930124  RH  020%=      5-min Rain = 0
KCA2 202022Z 10002KT 39/12 A2981 RMK A01 T03940123  RH  020%=      5-min Rain = 0
KCA2 202023Z 10005KT 40/13 A298 RMK A01 T03950126  RH  020%=      5-min Rain = 0
KCA2 202024Z 13009KT 40/13 A298 RMK A01 T03960125  RH  020%=      5-min Rain = 0
KCA2 202025Z 16008KT 40/12 A298 RMK A01 T03970121  RH  019%=      5-min Rain = 0
KCA2 202026Z 16008KT 40/12 A298 RMK A01 T03960120  RH  019%=      5-min Rain = 0
KCA2 202027Z 13005KT 40/12 A298 RMK A01 T03960119  RH  019%=      5-min Rain = 0
KCA2 202028Z 06002KT 40/12 A298 RMK A01 T03960119  RH  019%=      5-min Rain = 0
KCA2 202029Z 10002KT 40/12 A298 RMK A01 T03950120  RH  019%=      5-min Rain = 0
KCA2 202030Z 12002KT 40/12 A298 RMK A01 T03960120  RH  019%=      5-min Rain = 0
KCA2 202031Z 17004KT 40/12 A298 RMK A01 T03980122  RH  019%=      5-min Rain = 0
KCA2 202032Z 18005KT 40/13 A298 RMK A01 T04000126  RH  020%=      5-min Rain = 0
KCA2 202033Z 17008KT 40/13 A298 RMK A01 T04030127  RH  020%=      5-min Rain = 0
KCA2 202034Z 15006KT 40/12 A298 RMK A01 T04040124  RH  019%=      5-min Rain = 0
KCA2 202035Z 12004KT 40/12 A298 RMK A01 T04020119  RH  019%=      5-min Rain = 0
KCA2 202036Z 15002KT 40/12 A298 RMK A01 T03990120  RH  019%=      5-min Rain = 0
KCA2 202037Z 16003KT 40/12 A298 RMK A01 T03980121  RH  019%=      5-min Rain = 0
KCA2 202038Z 15008KT 40/12 A298 RMK A01 T04000122  RH  019%=      5-min Rain = 0
KCA2 202039Z 16006KT 40/12 A298 RMK A01 T04020124  RH  019%=      5-min Rain = 0
KCA2 202040Z 18006KT 41/12 A298 RMK A01 T04050121  RH  019%=      5-min Rain = 0
KCA2 202041Z 20003KT 41/11 A298 RMK A01 T04050106  RH  017%=      5-min Rain = 0
KCA2 202042Z 20005KT 40/10 A2979 RMK A01 T04030102  RH  017%=      5-min Rain = 0
KCA2 202043Z 21003KT 40/10 A2979 RMK A01 T04020102  RH  017%=      5-min Rain = 0
KCA2 202044Z 22004KT 40/11 A2979 RMK A01 T04010105  RH  017%=      5-min Rain = 0
KCA2 202045Z 24003KT 40/11 A2979 RMK A01 T04000105  RH  017%=      5-min Rain = 0
KCA2 202046Z 26002KT 40/11 A2979 RMK A01 T04000110  RH  018%=      5-min Rain = 0
KCA2 202047Z 18003KT 40/12 A2979 RMK A01 T04010115  RH  018%=      5-min Rain = 0
KCA2 202048Z 19002KT 40/12 A2979 RMK A01 T04040117  RH  018%=      5-min Rain = 0
KCA2 202049Z 28000KT 40/12 A2979 RMK A01 T04040115  RH  018%=      5-min Rain = 0
KCA2 202050Z 19000KT 40/12 A2979 RMK A01 T04030118  RH  018%=      5-min Rain = 0
KCA2 202051Z 19003KT 41/12 A2979 RMK A01 T04060121  RH  018%=      5-min Rain = 0
KCA2 202052Z 20003KT 41/12 A2979 RMK A01 T04070118  RH  018%=      5-min Rain = 0
KCA2 202053Z 21005KT 40/12 A2979 RMK A01 T04040119  RH  018%=      5-min Rain = 0
KCA2 202054Z 20003KT 40/12 A2979 RMK A01 T04000116  RH  019%=      5-min Rain = 0
KCA2 202055Z 19003KT 40/12 A2979 RMK A01 T03990118  RH  019%=      5-min Rain = 0
KCA2 202056Z 18002G7KT 40/12 A2978 RMK A01 T04010120  RH  019%=      5-min Rain = 0
KCA2 202057Z 19007KT 41/12 A2978 RMK A01 T04050124  RH  019%=      5-min Rain = 0
KCA2 202058Z 18009KT 41/12 A2978 RMK A01 T04080123  RH  019%=      5-min Rain = 0
KCA2 202059Z 18008KT 41/12 A2978 RMK A01 T04060123  RH  019%=      5-min Rain = 0
KCA2 202100Z 17007KT 41/12 A2978 RMK A01 T04060122  RH  019%=      5-min Rain = 0
KCA2 202101Z 18007KT 41/12 A2978 RMK A01 T04060118  RH  018%=      5-min Rain = 0
KCA2 202102Z 18008KT 41/12 A2978 RMK A01 T04060116  RH  018%=      5-min Rain = 0
KCA2 202103Z 19007KT 41/12 A2978 RMK A01 T04050115  RH  018%=      5-min Rain = 0
KCA2 202104Z 23005KT 40/12 A2978 RMK A01 T04010116  RH  018%=      5-min Rain = 0
KCA2 202105Z 25007KT 40/12 A2978 RMK A01 T04000116  RH  018%=      5-min Rain = 0
KCA2 202106Z 20007KT 40/12 A2978 RMK A01 T04010117  RH  018%=      5-min Rain = 0
KCA2 202107Z 19007KT 40/12 A2978 RMK A01 T04040120  RH  019%=      5-min Rain = 0
KCA2 202108Z 22004KT 40/12 A2978 RMK A01 T04040117  RH  018%=      5-min Rain = 0
KCA2 202109Z 22002KT 40/12 A2978 RMK A01 T04030118  RH  018%=      5-min Rain = 0
KCA2 202110Z 28002KT 41/12 A2978 RMK A01 T04050119  RH  018%=      5-min Rain = 0
KCA2 202111Z 31002KT 40/12 A2978 RMK A01 T04040119  RH  018%=      5-min Rain = 0
KCA2 202112Z 29007KT 40/12 A2978 RMK A01 T04030121  RH  019%=      5-min Rain = 0
KCA2 202113Z 29007KT 40/12 A2977 RMK A01 T04040121  RH  019%=      5-min Rain = 0
KCA2 202114Z 26006KT 40/12 A2977 RMK A01 T04030123  RH  019%=      5-min Rain = 0
KCA2 202115Z 27004KT 40/12 A2977 RMK A01 T04020123  RH  019%=      5-min Rain = 0
KCA2 202116Z 26003KT 40/12 A2977 RMK A01 T04000121  RH  019%=      5-min Rain = 0
KCA2 202117Z 24002KT 40/13 A2977 RMK A01 T04000125  RH  020%=      5-min Rain = 0
KCA2 202118Z 18004KT 40/12 A2977 RMK A01 T04020124  RH  019%=      5-min Rain = 0
KCA2 202119Z 16007KT 40/13 A2977 RMK A01 T04020128  RH  020%=      5-min Rain = 0
KCA2 202120Z 17007KT 40/13 A2977 RMK A01 T04040128  RH  020%=      5-min Rain = 0
KCA2 202121Z 16006KT 41/13 A2977 RMK A01 T04070128  RH  019%=      5-min Rain = 0
KCA2 202122Z 15005KT 41/13 A2977 RMK A01 T04070125  RH  019%=      5-min Rain = 0
KCA2 202123Z 16003KT 41/12 A2977 RMK A01 T04050123  RH  019%=      5-min Rain = 0
KCA2 202124Z 16008KT 40/13 A2977 RMK A01 T04010125  RH  020%=      5-min Rain = 0
KCA2 202125Z 15007KT 40/13 A2977 RMK A01 T04000126  RH  020%=      5-min Rain = 0
KCA2 202126Z 12004KT 40/13 A2977 RMK A01 T03980125  RH  020%=      5-min Rain = 0
KCA2 202127Z 13002KT 40/12 A2977 RMK A01 T03960124  RH  020%=      5-min Rain = 0
KCA2 202128Z 10003KT 40/13 A2977 RMK A01 T03950125  RH  020%=      5-min Rain = 0
KCA2 202129Z 09004KT 39/13 A2977 RMK A01 T03940126  RH  020%=      5-min Rain = 0
KCA2 202130Z 07004KT 39/12 A2977 RMK A01 T03940124  RH  020%=      5-min Rain = 0
KCA2 202131Z 06003KT 39/13 A2977 RMK A01 T03940125  RH  020%=      5-min Rain = 0
KCA2 202132Z 10002KT 40/13 A2977 RMK A01 T03950125  RH  020%=      5-min Rain = 0
KCA2 202133Z 14002KT 40/13 A2977 RMK A01 T03960127  RH  020%=      5-min Rain = 0
KCA2 202134Z 18002KT 40/12 A2977 RMK A01 T03970124  RH  020%=      5-min Rain = 0
KCA2 202135Z 18002KT 40/12 A2977 RMK A01 T03950122  RH  020%=      5-min Rain = 0
KCA2 202136Z 24000KT 39/12 A2977 RMK A01 T03930121  RH  020%=      5-min Rain = 0
KCA2 202137Z 25003KT 39/12 A2977 RMK A01 T03930123  RH  020%=      5-min Rain = 0
KCA2 202138Z 24004KT 39/12 A2977 RMK A01 T03930122  RH  020%=      5-min Rain = 0
KCA2 202139Z 25004KT 39/12 A2977 RMK A01 T03930120  RH  020%=      5-min Rain = 0
KCA2 202140Z 24003KT 39/12 A2977 RMK A01 T03930118  RH  019%=      5-min Rain = 0
KCA2 202141Z 26002KT 39/12 A2977 RMK A01 T03920117  RH  020%=      5-min Rain = 0
KCA2 202142Z 28001KT 39/12 A2977 RMK A01 T03910115  RH  019%=      5-min Rain = 0
KCA2 202143Z 29002KT 39/12 A2977 RMK A01 T03900115  RH  019%=      5-min Rain = 0
KCA2 202144Z 32003KT 39/12 A2977 RMK A01 T03900118  RH  020%=      5-min Rain = 0
KCA2 202145Z 32004KT 39/12 A2976 RMK A01 T03900120  RH  020%=      5-min Rain = 0
KCA2 202146Z 29006KT 39/12 A2976 RMK A01 T03920123  RH  020%=      5-min Rain = 0
KCA2 202147Z 27006KT 39/12 A2976 RMK A01 T03920123  RH  020%=      5-min Rain = 0
KCA2 202148Z 28005KT 39/13 A2976 RMK A01 T03910125  RH  021%=      5-min Rain = 0
KCA2 202149Z 30005KT 39/12 A2976 RMK A01 T03900123  RH  020%=      5-min Rain = 0
KCA2 202150Z 30005KT 39/13 A2976 RMK A01 T03890125  RH  021%=      5-min Rain = 0
KCA2 202151Z 30005KT 39/12 A2976 RMK A01 T03880122  RH  020%=      5-min Rain = 0
KCA2 202152Z 28005KT 39/12 A2976 RMK A01 T03890124  RH  021%=      5-min Rain = 0
KCA2 202153Z 29005KT 39/12 A2976 RMK A01 T03890124  RH  021%=      5-min Rain = 0
KCA2 202154Z 29005KT 39/12 A2976 RMK A01 T03890123  RH  021%=      5-min Rain = 0
KCA2 202155Z 30003KT 39/12 A2976 RMK A01 T03890123  RH  021%=      5-min Rain = 0
KCA2 202156Z 35004KT 39/12 A2976 RMK A01 T03890123  RH  021%=      5-min Rain = 0
KCA2 202157Z 35003KT 39/12 A2976 RMK A01 T03890120  RH  020%=      5-min Rain = 0
KCA2 202158Z 00002KT 39/12 A2976 RMK A01 T03890121  RH  020%=      5-min Rain = 0
KCA2 202159Z 00002KT 39/12 A2976 RMK A01 T03890121  RH  020%=      5-min Rain = 0
KCA2 202200Z 01002KT 39/12 A2976 RMK A01 T03890119  RH  020%=      5-min Rain = 0
KCA2 202201Z 02000KT 39/12 A2976 RMK A01 T03890116  RH  020%=      5-min Rain = 0
KCA2 202202Z 36001KT 39/12 A2976 RMK A01 T03890116  RH  020%=      5-min Rain = 0
KCA2 202203Z 35002KT 39/12 A2976 RMK A01 T03900116  RH  020%=      5-min Rain = 0
KCA2 202204Z 32002KT 39/12 A2976 RMK A01 T03890118  RH  020%=      5-min Rain = 0
KCA2 202205Z 26003KT 39/12 A2976 RMK A01 T03890119  RH  020%=      5-min Rain = 0
KCA2 202206Z 26002KT 39/12 A2976 RMK A01 T03890119  RH  020%=      5-min Rain = 0
KCA2 202207Z 27002KT 39/12 A2976 RMK A01 T03880118  RH  020%=      5-min Rain = 0
KCA2 202208Z 26001KT 39/12 A2976 RMK A01 T03880118  RH  020%=      5-min Rain = 0
KCA2 202209Z 23002KT 39/12 A2976 RMK A01 T03880122  RH  021%=      5-min Rain = 0
KCA2 202210Z 24002KT 39/12 A2976 RMK A01 T03880122  RH  021%=      5-min Rain = 0
KCA2 202211Z 26002KT 39/12 A2976 RMK A01 T03880122  RH  021%=      5-min Rain = 0
KCA2 202212Z 27002KT 39/12 A2976 RMK A01 T03890123  RH  021%=      5-min Rain = 0
KCA2 202213Z 27002KT 39/12 A2976 RMK A01 T03890121  RH  020%=      5-min Rain = 0
KCA2 202214Z 29002KT 39/12 A2976 RMK A01 T03890122  RH  020%=      5-min Rain = 0
KCA2 202215Z 31002KT 39/12 A2976 RMK A01 T03880123  RH  021%=      5-min Rain = 0
KCA2 202216Z 32001KT 39/13 A2975 RMK A01 T03880125  RH  021%=      5-min Rain = 0
KCA2 202217Z 34000KT 39/13 A2975 RMK A01 T03880127  RH  021%=      5-min Rain = 0
KCA2 202218Z 00000KT 39/12 A2975 RMK A01 T03890123  RH  021%=      5-min Rain = 0
KCA2 202219Z 10000KT 39/12 A2975 RMK A01 T03890122  RH  020%=      5-min Rain = 0
KCA2 202220Z 14001KT 39/12 A2975 RMK A01 T03900121  RH  020%=      5-min Rain = 0
KCA2 202221Z 23000KT 39/12 A2975 RMK A01 T03900119  RH  020%=      5-min Rain = 0
KCA2 202222Z 16002KT 39/12 A2975 RMK A01 T03900121  RH  020%=      5-min Rain = 0
KCA2 202223Z 15003KT 39/13 A2976 RMK A01 T03900126  RH  021%=      5-min Rain = 0
KCA2 202224Z 17003KT 39/13 A2976 RMK A01 T03890125  RH  021%=      5-min Rain = 0
KCA2 202225Z 17004KT 39/12 A2976 RMK A01 T03890123  RH  021%=      5-min Rain = 0
KCA2 202226Z 16003KT 39/12 A2976 RMK A01 T03880120  RH  020%=      5-min Rain = 0
KCA2 202227Z 17003KT 39/12 A2976 RMK A01 T03880121  RH  020%=      5-min Rain = 0
KCA2 202228Z 16005KT 39/12 A2976 RMK A01 T03880122  RH  021%=      5-min Rain = 0
KCA2 202229Z 15005KT 39/12 A2976 RMK A01 T03870122  RH  021%=      5-min Rain = 0
KCA2 202230Z 15004KT 39/12 A2976 RMK A01 T03870124  RH  021%=      5-min Rain = 0
KCA2 202231Z 14003KT 39/13 A2975 RMK A01 T03860126  RH  021%=      5-min Rain = 0
KCA2 202232Z 14003KT 39/13 A2975 RMK A01 T03860126  RH  021%=      5-min Rain = 0
KCA2 202233Z 14004KT 39/13 A2975 RMK A01 T03860126  RH  021%=      5-min Rain = 0
KCA2 202234Z 14004KT 39/13 A2975 RMK A01 T03850127  RH  021%=      5-min Rain = 0
KCA2 202235Z 15004KT 39/13 A2976 RMK A01 T03850128  RH  022%=      5-min Rain = 0
KCA2 202236Z 16004KT 39/13 A2976 RMK A01 T03850129  RH  022%=      5-min Rain = 0
KCA2 202237Z 15004KT 38/13 A2976 RMK A01 T03840131  RH  022%=      5-min Rain = 0
KCA2 202238Z 15004KT 38/13 A2976 RMK A01 T03840126  RH  021%=      5-min Rain = 0
KCA2 202239Z 15004KT 38/13 A2976 RMK A01 T03840129  RH  022%=      5-min Rain = 0
KCA2 202240Z 15004KT 38/13 A2976 RMK A01 T03840127  RH  022%=      5-min Rain = 0
KCA2 202241Z 15004KT 38/13 A2975 RMK A01 T03840126  RH  022%=      5-min Rain = 0
KCA2 202242Z 15003KT 38/13 A2975 RMK A01 T03830128  RH  022%=      5-min Rain = 0
KCA2 202243Z 15003KT 38/13 A2975 RMK A01 T03830129  RH  022%=      5-min Rain = 0
KCA2 202244Z 15002KT 38/13 A2975 RMK A01 T03830127  RH  022%=      5-min Rain = 0
KCA2 202245Z 15002KT 38/13 A2975 RMK A01 T03830126  RH  022%=      5-min Rain = 0
KCA2 202246Z 15002KT 38/13 A2976 RMK A01 T03830127  RH  022%=      5-min Rain = 0
KCA2 202247Z 14002KT 38/12 A2976 RMK A01 T03830124  RH  021%=      5-min Rain = 0
KCA2 202248Z 14002KT 38/12 A2975 RMK A01 T03830122  RH  021%=      5-min Rain = 0
KCA2 202249Z 13002KT 38/12 A2975 RMK A01 T03830118  RH  020%=      5-min Rain = 0
KCA2 202250Z 13001KT 38/12 A2975 RMK A01 T03830121  RH  021%=      5-min Rain = 0
KCA2 202251Z 15002KT 38/13 A2975 RMK A01 T03840125  RH  021%=      5-min Rain = 0
KCA2 202252Z 14002KT 38/12 A2975 RMK A01 T03840124  RH  021%=      5-min Rain = 0
KCA2 202253Z 12003KT 38/12 A2975 RMK A01 T03840119  RH  021%=      5-min Rain = 0
KCA2 202254Z 10002KT 38/11 A2975 RMK A01 T03840114  RH  020%=      5-min Rain = 0
KCA2 202255Z 12002KT 38/11 A2975 RMK A01 T03840112  RH  020%=      5-min Rain = 0
KCA2 202256Z 13001KT 39/11 A2975 RMK A01 T03850111  RH  019%=      5-min Rain = 0
KCA2 202257Z 13001KT 39/11 A2975 RMK A01 T03850112  RH  020%=      5-min Rain = 0
KCA2 202258Z 14001KT 39/11 A2975 RMK A01 T03860110  RH  019%=      5-min Rain = 0
KCA2 202259Z 13000KT 39/12 A2975 RMK A01 T03860116  RH  020%=      5-min Rain = 0
KCA2 202300Z 17000KT 39/12 A2974 RMK A01 T03860115  RH  020%=      5-min Rain = 0
KCA2 202301Z 00000KT 39/12 A2974 RMK A01 T03870115  RH  020%=      5-min Rain = 0
KCA2 202302Z 00000KT 39/12 A2974 RMK A01 T03870117  RH  020%=      5-min Rain = 0
KCA2 202303Z 20000KT 39/12 A2974 RMK A01 T03870116  RH  020%=      5-min Rain = 0
KCA2 202304Z 19001KT 39/12 A2974 RMK A01 T03870118  RH  020%=      5-min Rain = 0
KCA2 202305Z 22001KT 39/12 A2974 RMK A01 T03870115  RH  020%=      5-min Rain = 0
KCA2 202306Z 25001KT 39/12 A2974 RMK A01 T03870118  RH  020%=      5-min Rain = 0
KCA2 202307Z 26001KT 39/12 A2974 RMK A01 T03870123  RH  021%=      5-min Rain = 0
KCA2 202308Z 26002KT 39/12 A2974 RMK A01 T03860124  RH  021%=      5-min Rain = 0
KCA2 202309Z 26002KT 39/12 A2974 RMK A01 T03860119  RH  020%=      5-min Rain = 0
KCA2 202310Z 27002KT 39/12 A2974 RMK A01 T03860124  RH  021%=      5-min Rain = 0
KCA2 202311Z 27002KT 39/12 A2974 RMK A01 T03850121  RH  021%=      5-min Rain = 0
KCA2 202312Z 26002KT 39/12 A2974 RMK A01 T03850121  RH  021%=      5-min Rain = 0
KCA2 202313Z 26001KT 39/11 A2974 RMK A01 T03850108  RH  019%=      5-min Rain = 0
KCA2 202314Z 00000KT 39/11 A2974 RMK A01 T03850108  RH  019%=      5-min Rain = 0
KCA2 202315Z 26001KT 39/11 A2974 RMK A01 T03850114  RH  020%=      5-min Rain = 0
KCA2 202316Z 26001KT 39/12 A2974 RMK A01 T03860116  RH  020%=      5-min Rain = 0
KCA2 202317Z 25001KT 39/12 A2975 RMK A01 T03860120  RH  020%=      5-min Rain = 0
KCA2 202318Z 24001KT 39/12 A2975 RMK A01 T03860118  RH  020%=      5-min Rain = 0
KCA2 202319Z 22002KT 39/12 A2974 RMK A01 T03860124  RH  021%=      5-min Rain = 0
KCA2 202320Z 22002KT 39/13 A2974 RMK A01 T03850132  RH  022%=      5-min Rain = 0
KCA2 202321Z 21003KT 38/14 A2974 RMK A01 T03840136  RH  023%=      5-min Rain = 0
KCA2 202322Z 21003KT 38/14 A2974 RMK A01 T03820138  RH  024%=      5-min Rain = 0
KCA2 202323Z 21003KT 38/14 A2974 RMK A01 T03810139  RH  024%=      5-min Rain = 0
KCA2 202324Z 21003KT 38/14 A2974 RMK A01 T03810136  RH  023%=      5-min Rain = 0
KCA2 202325Z 20003KT 38/14 A2974 RMK A01 T03800141  RH  024%=      5-min Rain = 0
KCA2 202326Z 20003KT 38/15 A2974 RMK A01 T03800147  RH  025%=      5-min Rain = 0
KCA2 202327Z 22003KT 38/14 A2974 RMK A01 T03790140  RH  024%=      5-min Rain = 0
KCA2 202328Z 24005KT 38/15 A2974 RMK A01 T03790151  RH  026%=      5-min Rain = 0
KCA2 202329Z 25005KT 38/13 A2974 RMK A01 T03790134  RH  023%=      5-min Rain = 0
KCA2 202330Z 24004KT 38/13 A2974 RMK A01 T03780134  RH  023%=      5-min Rain = 0
KCA2 202331Z 23004KT 38/13 A2974 RMK A01 T03780131  RH  023%=      5-min Rain = 0
KCA2 202332Z 22005KT 38/12 A2974 RMK A01 T03780121  RH  022%=      5-min Rain = 0
KCA2 202333Z 22004KT 38/12 A2974 RMK A01 T03780124  RH  022%=      5-min Rain = 0
KCA2 202334Z 23004KT 38/12 A2974 RMK A01 T03780121  RH  021%=      5-min Rain = 0
KCA2 202335Z 21003KT 38/12 A2974 RMK A01 T03790120  RH  021%=      5-min Rain = 0
KCA2 202336Z 21003KT 38/12 A2974 RMK A01 T03790121  RH  021%=      5-min Rain = 0
KCA2 202337Z 21002KT 38/12 A2974 RMK A01 T03790123  RH  022%=      5-min Rain = 0
KCA2 202338Z 21002KT 38/12 A2974 RMK A01 T03790120  RH  021%=      5-min Rain = 0
KCA2 202339Z 21002KT 38/12 A2974 RMK A01 T03790123  RH  022%=      5-min Rain = 0
KCA2 202340Z 20002KT 38/13 A2974 RMK A01 T03800125  RH  022%=      5-min Rain = 0
KCA2 202341Z 21002KT 38/13 A2974 RMK A01 T03800126  RH  022%=      5-min Rain = 0
KCA2 202342Z 19002KT 38/13 A2974 RMK A01 T03790125  RH  022%=      5-min Rain = 0
KCA2 202343Z 16002KT 38/13 A2974 RMK A01 T03790132  RH  023%=      5-min Rain = 0
KCA2 202344Z 17003KT 38/14 A2974 RMK A01 T03790136  RH  024%=      5-min Rain = 0
KCA2 202345Z 17004KT 38/14 A2974 RMK A01 T03780137  RH  024%=      5-min Rain = 0
KCA2 202346Z 16004KT 38/14 A2974 RMK A01 T03770137  RH  024%=      5-min Rain = 0
KCA2 202347Z 17005KT 38/14 A2974 RMK A01 T03760135  RH  024%=      5-min Rain = 0
KCA2 202348Z 17005KT 38/13 A2974 RMK A01 T03760131  RH  023%=      5-min Rain = 0
KCA2 202349Z 16005KT 38/13 A2974 RMK A01 T03760130  RH  023%=      5-min Rain = 0
KCA2 202350Z 17006KT 38/13 A2974 RMK A01 T03760131  RH  023%=      5-min Rain = 0
KCA2 202351Z 16005KT 38/13 A2974 RMK A01 T03750128  RH  023%=      5-min Rain = 0
KCA2 202352Z 16006KT 38/13 A2974 RMK A01 T03760131  RH  023%=      5-min Rain = 0
KCA2 202353Z 17006KT 38/13 A2974 RMK A01 T03760130  RH  023%=      5-min Rain = 0
KCA2 202354Z 17005KT 38/13 A2974 RMK A01 T03750128  RH  023%=      5-min Rain = 0
KCA2 202355Z 17005KT 38/13 A2974 RMK A01 T03750133  RH  024%=      5-min Rain = 0
KCA2 202356Z 17005KT 38/14 A2974 RMK A01 T03750137  RH  024%=      5-min Rain = 0
KCA2 202357Z 18004KT 37/14 A2974 RMK A01 T03740136  RH  024%=      5-min Rain = 0
KCA2 202358Z 17005KT 37/13 A2974 RMK A01 T03740132  RH  024%=      5-min Rain = 0
KCA2 202359Z 17005KT 37/13 A2974 RMK A01 T03730132  RH  024%=      5-min Rain = 0
KCA2 210000Z 16005KT 37/14 A2974 RMK A01 T03730135  RH  024%=      5-min Rain = 0
KCA2 210001Z 17005KT 37/14 A2974 RMK A01 T03730136  RH  024%=      5-min Rain = 0
KCA2 210002Z 16005KT 37/14 A2974 RMK A01 T03720137  RH  025%=      5-min Rain = 0
KCA2 210003Z 16006KT 37/14 A2974 RMK A01 T03720139  RH  025%=      5-min Rain = 0
KCA2 210004Z 16006KT 37/14 A2974 RMK A01 T03710140  RH  025%=      5-min Rain = 0
KCA2 210005Z 16007KT 37/14 A2974 RMK A01 T03700140  RH  025%=      5-min Rain = 0
KCA2 210006Z 16007KT 37/14 A2974 RMK A01 T03700139  RH  025%=      5-min Rain = 0
KCA2 210007Z 16007KT 37/14 A2974 RMK A01 T03690137  RH  025%=      5-min Rain = 0
KCA2 210008Z 16008KT 37/14 A2974 RMK A01 T03700138  RH  025%=      5-min Rain = 0
KCA2 210009Z 16010KT 37/14 A2974 RMK A01 T03700139  RH  025%=      5-min Rain = 0
KCA2 210010Z 17010KT 37/14 A2974 RMK A01 T03700140  RH  025%=      5-min Rain = 0
KCA2 210011Z 17010KT 37/14 A2974 RMK A01 T03700139  RH  025%=      5-min Rain = 0
KCA2 210012Z 17009KT 37/14 A2974 RMK A01 T03700138  RH  025%=      5-min Rain = 0
KCA2 210013Z 18009KT 37/14 A2974 RMK A01 T03700137  RH  025%=      5-min Rain = 0
KCA2 210014Z 17010G16KT 37/14 A2974 RMK A01 T03700135  RH  025%=      5-min Rain = 0
KCA2 210015Z 17012KT 37/13 A2974 RMK A01 T03700128  RH  023%=      5-min Rain = 0
KCA2 210016Z 17011KT 37/13 A2974 RMK A01 T03700128  RH  024%=      5-min Rain = 0
KCA2 210017Z 16010KT 37/12 A2974 RMK A01 T03700124  RH  023%=      5-min Rain = 0
KCA2 210018Z 16010KT 37/12 A2974 RMK A01 T03700121  RH  023%=      5-min Rain = 0
KCA2 210019Z 16009KT 37/12 A2974 RMK A01 T03700120  RH  022%=      5-min Rain = 0
KCA2 210020Z 17008KT 37/12 A2974 RMK A01 T03700122  RH  023%=      5-min Rain = 0
KCA2 210021Z 17009G14KT 37/12 A2974 RMK A01 T03690121  RH  022%=      5-min Rain = 0
KCA2 210022Z 18012KT 37/12 A2974 RMK A01 T03690118  RH  022%=      5-min Rain = 0
KCA2 210023Z 18008KT 37/12 A2974 RMK A01 T03700118  RH  022%=      5-min Rain = 0
KCA2 210024Z 18009KT 37/12 A2974 RMK A01 T03690117  RH  022%=      5-min Rain = 0
KCA2 210025Z 18009KT 37/12 A2974 RMK A01 T03690119  RH  022%=      5-min Rain = 0
KCA2 210026Z 18009KT 37/12 A2974 RMK A01 T03700117  RH  022%=      5-min Rain = 0
KCA2 210027Z 17006KT 37/12 A2974 RMK A01 T03690117  RH  022%=      5-min Rain = 0
KCA2 210028Z 18007KT 37/12 A2974 RMK A01 T03690118  RH  022%=      5-min Rain = 0
KCA2 210029Z 16006KT 37/12 A2974 RMK A01 T03690115  RH  022%=      5-min Rain = 0
KCA2 210030Z 15007KT 37/11 A2974 RMK A01 T03690114  RH  022%=      5-min Rain = 0
KCA2 210031Z 14005KT 37/12 A2974 RMK A01 T03690117  RH  022%=      5-min Rain = 0
KCA2 210032Z 13005KT 37/12 A2974 RMK A01 T03690120  RH  023%=      5-min Rain = 0
KCA2 210033Z 15006KT 37/12 A2974 RMK A01 T03680117  RH  022%=      5-min Rain = 0
KCA2 210034Z 14005KT 37/12 A2974 RMK A01 T03670115  RH  022%=      5-min Rain = 0
KCA2 210035Z 14005KT 37/12 A2974 RMK A01 T03680116  RH  022%=      5-min Rain = 0
KCA2 210036Z 14004KT 37/12 A2974 RMK A01 T03670117  RH  022%=      5-min Rain = 0
KCA2 210037Z 13003KT 37/12 A2974 RMK A01 T03670118  RH  022%=      5-min Rain = 0
KCA2 210038Z 15004KT 37/12 A2974 RMK A01 T03670117  RH  022%=      5-min Rain = 0
KCA2 210039Z 12004KT 37/12 A2974 RMK A01 T03670117  RH  022%=      5-min Rain = 0
KCA2 210040Z 14004KT 37/11 A2974 RMK A01 T03660114  RH  022%=      5-min Rain = 0
KCA2 210041Z 14004KT 37/11 A2974 RMK A01 T03660114  RH  022%=      5-min Rain = 0
KCA2 210042Z 11003KT 37/11 A2974 RMK A01 T03660114  RH  022%=      5-min Rain = 0
KCA2 210043Z 12004KT 37/12 A2974 RMK A01 T03660117  RH  022%=      5-min Rain = 0
KCA2 210044Z 13005KT 37/11 A2974 RMK A01 T03660114  RH  022%=      5-min Rain = 0
KCA2 210045Z 12006KT 37/12 A2974 RMK A01 T03650115  RH  022%=      5-min Rain = 0
KCA2 210046Z 13008KT 37/11 A2974 RMK A01 T03650111  RH  022%=      5-min Rain = 0
KCA2 210047Z 13006KT 37/11 A2975 RMK A01 T03650112  RH  022%=      5-min Rain = 0
KCA2 210048Z 12007KT 37/11 A2974 RMK A01 T03650113  RH  022%=      5-min Rain = 0
KCA2 210049Z 13008KT 36/11 A2974 RMK A01 T03640110  RH  022%=      5-min Rain = 0
KCA2 210050Z 14006KT 36/11 A2974 RMK A01 T03640112  RH  022%=      5-min Rain = 0
KCA2 210051Z 14006KT 36/11 A2974 RMK A01 T03630113  RH  022%=      5-min Rain = 0
KCA2 210052Z 14008KT 36/11 A2974 RMK A01 T03630112  RH  022%=      5-min Rain = 0
KCA2 210053Z 16007KT 36/11 A2974 RMK A01 T03620111  RH  022%=      5-min Rain = 0
KCA2 210054Z 15005KT 36/11 A2974 RMK A01 T03620111  RH  022%=      5-min Rain = 0
KCA2 210055Z 15004KT 36/11 A2974 RMK A01 T03620112  RH  022%=      5-min Rain = 0
KCA2 210056Z 16005KT 36/11 A2974 RMK A01 T03620112  RH  022%=      5-min Rain = 0
KCA2 210057Z 15005KT 36/11 A2974 RMK A01 T03620111  RH  022%=      5-min Rain = 0
KCA2 210058Z 15005KT 36/11 A2974 RMK A01 T03620109  RH  022%=      5-min Rain = 0
KCA2 210059Z 16004KT 36/11 A2974 RMK A01 T03620110  RH  022%=      5-min Rain = 0
KCA2 210100Z 16005KT 36/11 A2974 RMK A01 T03610111  RH  022%=      5-min Rain = 0
KCA2 210101Z 16006KT 36/11 A2974 RMK A01 T03610109  RH  022%=      5-min Rain = 0
KCA2 210102Z 15005KT 36/11 A2974 RMK A01 T03610107  RH  022%=      5-min Rain = 0
KCA2 210103Z 14006KT 36/11 A2974 RMK A01 T03610110  RH  022%=      5-min Rain = 0
KCA2 210104Z 13006KT 36/11 A2975 RMK A01 T03600111  RH  022%=      5-min Rain = 0
KCA2 210105Z 13005KT 36/11 A2975 RMK A01 T03600112  RH  022%=      5-min Rain = 0
KCA2 210106Z 13005KT 36/11 A2975 RMK A01 T03590112  RH  022%=      5-min Rain = 0
KCA2 210107Z 13005KT 36/11 A2975 RMK A01 T03590112  RH  023%=      5-min Rain = 0
KCA2 210108Z 14005KT 36/11 A2975 RMK A01 T03590112  RH  023%=      5-min Rain = 0
KCA2 210109Z 15004KT 36/11 A2975 RMK A01 T03590113  RH  023%=      5-min Rain = 0
KCA2 210110Z 16003KT 36/11 A2975 RMK A01 T03590112  RH  022%=      5-min Rain = 0
KCA2 210111Z 16003KT 36/11 A2975 RMK A01 T03580112  RH  023%=      5-min Rain = 0
KCA2 210112Z 16003KT 36/11 A2975 RMK A01 T03590113  RH  023%=      5-min Rain = 0
KCA2 210113Z 16002KT 36/11 A2975 RMK A01 T03580114  RH  023%=      5-min Rain = 0
KCA2 210114Z 16003KT 36/12 A2975 RMK A01 T03580115  RH  023%=      5-min Rain = 0
KCA2 210115Z 16003KT 36/12 A2975 RMK A01 T03570115  RH  023%=      5-min Rain = 0
KCA2 210116Z 15003KT 36/11 A2975 RMK A01 T03570112  RH  023%=      5-min Rain = 0
KCA2 210117Z 15004KT 36/11 A2974 RMK A01 T03570113  RH  023%=      5-min Rain = 0
KCA2 210118Z 14003KT 36/11 A2974 RMK A01 T03570114  RH  023%=      5-min Rain = 0
KCA2 210119Z 13003KT 36/11 A2974 RMK A01 T03570114  RH  023%=      5-min Rain = 0
KCA2 210120Z 13003KT 36/11 A2974 RMK A01 T03570114  RH  023%=      5-min Rain = 0
KCA2 210121Z 13003KT 36/12 A2974 RMK A01 T03560115  RH  023%=      5-min Rain = 0
KCA2 210122Z 12003KT 36/12 A2974 RMK A01 T03560115  RH  023%=      5-min Rain = 0
KCA2 210123Z 12004KT 36/12 A2974 RMK A01 T03560115  RH  023%=      5-min Rain = 0
KCA2 210124Z 13004KT 36/12 A2974 RMK A01 T03550116  RH  024%=      5-min Rain = 0
KCA2 210125Z 12004KT 36/12 A2974 RMK A01 T03550118  RH  024%=      5-min Rain = 0
KCA2 210126Z 13005KT 35/12 A2974 RMK A01 T03540119  RH  024%=      5-min Rain = 0
KCA2 210127Z 14005KT 35/12 A2974 RMK A01 T03530117  RH  024%=      5-min Rain = 0
KCA2 210128Z 15005KT 35/12 A2974 RMK A01 T03530115  RH  024%=      5-min Rain = 0
KCA2 210129Z 15006KT 35/11 A2974 RMK A01 T03530109  RH  023%=      5-min Rain = 0
KCA2 210130Z 15005KT 35/11 A2974 RMK A01 T03540108  RH  023%=      5-min Rain = 0
KCA2 210131Z 15004KT 35/11 A2974 RMK A01 T03540106  RH  022%=      5-min Rain = 0
KCA2 210132Z 16003KT 35/11 A2974 RMK A01 T03540108  RH  022%=      5-min Rain = 0
KCA2 210133Z 16003KT 35/11 A2974 RMK A01 T03540109  RH  023%=      5-min Rain = 0
KCA2 210134Z 17003KT 35/11 A2974 RMK A01 T03540109  RH  023%=      5-min Rain = 0
KCA2 210135Z 19003KT 35/11 A2974 RMK A01 T03540110  RH  023%=      5-min Rain = 0
KCA2 210136Z 20004KT 35/11 A2974 RMK A01 T03540111  RH  023%=      5-min Rain = 0
KCA2 210137Z 20003KT 35/12 A2974 RMK A01 T03530116  RH  024%=      5-min Rain = 0
KCA2 210138Z 19003KT 35/12 A2974 RMK A01 T03520116  RH  024%=      5-min Rain = 0
KCA2 210139Z 18003KT 35/12 A2974 RMK A01 T03520115  RH  024%=      5-min Rain = 0
KCA2 210140Z 19004KT 35/11 A2974 RMK A01 T03520109  RH  023%=      5-min Rain = 0
KCA2 210141Z 19004KT 35/11 A2974 RMK A01 T03520111  RH  023%=      5-min Rain = 0
KCA2 210142Z 18004KT 35/11 A2974 RMK A01 T03530111  RH  023%=      5-min Rain = 0
KCA2 210143Z 18005KT 35/11 A2974 RMK A01 T03530108  RH  023%=      5-min Rain = 0
KCA2 210144Z 18003KT 35/10 A2974 RMK A01 T03540102  RH  022%=      5-min Rain = 0
KCA2 210145Z 18004KT 35/11 A2974 RMK A01 T03540108  RH  022%=      5-min Rain = 0
KCA2 210146Z 17005KT 35/11 A2974 RMK A01 T03540106  RH  022%=      5-min Rain = 0
KCA2 210147Z 18004KT 35/11 A2974 RMK A01 T03540105  RH  022%=      5-min Rain = 0
KCA2 210148Z 18004KT 35/10 A2975 RMK A01 T03530103  RH  022%=      5-min Rain = 0
KCA2 210149Z 18007KT 35/10 A2975 RMK A01 T03530095  RH  021%=      5-min Rain = 0
KCA2 210150Z 17007KT 35/08 A2975 RMK A01 T03540078  RH  018%=      5-min Rain = 0
KCA2 210151Z 18006KT 36/08 A2975 RMK A01 T03570080  RH  018%=      5-min Rain = 0
KCA2 210152Z 17006KT 36/08 A2975 RMK A01 T03590082  RH  018%=      5-min Rain = 0
KCA2 210153Z 19007KT 36/09 A2975 RMK A01 T03590086  RH  019%=      5-min Rain = 0
KCA2 210154Z 18006KT 36/09 A2975 RMK A01 T03580090  RH  020%=      5-min Rain = 0
KCA2 210155Z 18005KT 36/09 A2975 RMK A01 T03560088  RH  020%=      5-min Rain = 0
KCA2 210156Z 19006KT 36/09 A2975 RMK A01 T03550087  RH  020%=      5-min Rain = 0
KCA2 210157Z 19007KT 35/09 A2975 RMK A01 T03540089  RH  020%=      5-min Rain = 0
KCA2 210158Z 19007KT 35/09 A2975 RMK A01 T03540088  RH  020%=      5-min Rain = 0
KCA2 210159Z 18006KT 35/09 A2975 RMK A01 T03540088  RH  020%=      5-min Rain = 0
KCA2 210200Z 18008KT 35/09 A2975 RMK A01 T03540088  RH  020%=      5-min Rain = 0
KCA2 210201Z 19007KT 35/09 A2975 RMK A01 T03530086  RH  020%=      5-min Rain = 0
KCA2 210202Z 19008KT 35/09 A2975 RMK A01 T03530085  RH  019%=      5-min Rain = 0
KCA2 210203Z 19009KT 35/08 A2975 RMK A01 T03530083  RH  019%=      5-min Rain = 0
KCA2 210204Z 19009KT 35/08 A2975 RMK A01 T03540083  RH  019%=      5-min Rain = 0
KCA2 210205Z 19010KT 35/08 A2975 RMK A01 T03540082  RH  019%=      5-min Rain = 0
KCA2 210206Z 19008KT 35/08 A2975 RMK A01 T03540081  RH  019%=      5-min Rain = 0
KCA2 210207Z 18009KT 35/08 A2975 RMK A01 T03540083  RH  019%=      5-min Rain = 0
KCA2 210208Z 18006KT 35/08 A2975 RMK A01 T03540082  RH  019%=      5-min Rain = 0
KCA2 210209Z 18006KT 35/08 A2975 RMK A01 T03530082  RH  019%=      5-min Rain = 0
KCA2 210210Z 18005KT 35/08 A2975 RMK A01 T03530081  RH  019%=      5-min Rain = 0
KCA2 210211Z 15005KT 35/08 A2975 RMK A01 T03530082  RH  019%=      5-min Rain = 0
KCA2 210212Z 15004KT 35/08 A2975 RMK A01 T03520083  RH  019%=      5-min Rain = 0
KCA2 210213Z 12003KT 35/08 A2975 RMK A01 T03510082  RH  019%=      5-min Rain = 0
KCA2 210214Z 12003KT 35/09 A2975 RMK A01 T03490085  RH  020%=      5-min Rain = 0
KCA2 210215Z 12004KT 35/09 A2975 RMK A01 T03480086  RH  020%=      5-min Rain = 0
KCA2 210216Z 11003KT 35/09 A2975 RMK A01 T03480085  RH  020%=      5-min Rain = 0
KCA2 210217Z 12003KT 35/09 A2975 RMK A01 T03470085  RH  020%=      5-min Rain = 0
KCA2 210218Z 14003KT 35/09 A2975 RMK A01 T03480085  RH  020%=      5-min Rain = 0
KCA2 210219Z 12004KT 35/08 A2975 RMK A01 T03470084  RH  020%=      5-min Rain = 0
KCA2 210220Z 10004KT 35/08 A2975 RMK A01 T03480078  RH  019%=      5-min Rain = 0
KCA2 210221Z 09006KT 35/08 A2975 RMK A01 T03500079  RH  019%=      5-min Rain = 0
KCA2 210222Z 10006KT 35/08 A2975 RMK A01 T03510082  RH  019%=      5-min Rain = 0
KCA2 210223Z 10007KT 35/08 A2975 RMK A01 T03510078  RH  019%=      5-min Rain = 0
KCA2 210224Z 09006KT 35/08 A2975 RMK A01 T03510080  RH  019%=      5-min Rain = 0
KCA2 210225Z 10004KT 35/08 A2975 RMK A01 T03510079  RH  019%=      5-min Rain = 0
KCA2 210226Z 09006KT 35/08 A2975 RMK A01 T03500080  RH  019%=      5-min Rain = 0
KCA2 210227Z 10007KT 35/08 A2975 RMK A01 T03490078  RH  019%=      5-min Rain = 0
KCA2 210228Z 09007KT 35/08 A2975 RMK A01 T03490077  RH  019%=      5-min Rain = 0
KCA2 210229Z 09007KT 35/08 A2975 RMK A01 T03490079  RH  019%=      5-min Rain = 0
KCA2 210230Z 09007KT 35/08 A2975 RMK A01 T03470079  RH  019%=      5-min Rain = 0
KCA2 210231Z 10006KT 35/08 A2975 RMK A01 T03470079  RH  019%=      5-min Rain = 0
KCA2 210232Z 12006KT 35/08 A2975 RMK A01 T03480076  RH  019%=      5-min Rain = 0
KCA2 210233Z 11005KT 35/07 A2975 RMK A01 T03500073  RH  018%=      5-min Rain = 0
KCA2 210234Z 11004KT 35/08 A2975 RMK A01 T03520075  RH  018%=      5-min Rain = 0
KCA2 210235Z 12004KT 35/08 A2975 RMK A01 T03520076  RH  018%=      5-min Rain = 0
KCA2 210236Z 11005KT 35/08 A2975 RMK A01 T03520076  RH  018%=      5-min Rain = 0
KCA2 210237Z 10004KT 35/08 A2975 RMK A01 T03520075  RH  018%=      5-min Rain = 0
KCA2 210238Z 11004KT 35/08 A2975 RMK A01 T03520075  RH  018%=      5-min Rain = 0
KCA2 210239Z 10004KT 35/08 A2975 RMK A01 T03520076  RH  018%=      5-min Rain = 0
KCA2 210240Z 08005KT 35/08 A2975 RMK A01 T03520076  RH  018%=      5-min Rain = 0
KCA2 210241Z 06004KT 35/08 A2975 RMK A01 T03500078  RH  019%=      5-min Rain = 0
KCA2 210242Z 05004KT 35/08 A2975 RMK A01 T03500080  RH  019%=      5-min Rain = 0
KCA2 210243Z 05005KT 35/08 A2975 RMK A01 T03480082  RH  019%=      5-min Rain = 0
KCA2 210244Z 05005KT 35/08 A2975 RMK A01 T03470082  RH  020%=      5-min Rain = 0
KCA2 210245Z 06005KT 35/08 A2975 RMK A01 T03460082  RH  020%=      5-min Rain = 0
KCA2 210246Z 05005KT 35/08 A2975 RMK A01 T03460082  RH  020%=      5-min Rain = 0
KCA2 210247Z 06005KT 35/08 A2975 RMK A01 T03450081  RH  020%=      5-min Rain = 0
KCA2 210248Z 05006KT 35/08 A2975 RMK A01 T03450082  RH  020%=      5-min Rain = 0
KCA2 210249Z 05006KT 35/08 A2975 RMK A01 T03450083  RH  020%=      5-min Rain = 0
KCA2 210250Z 04006KT 34/09 A2975 RMK A01 T03440085  RH  020%=      5-min Rain = 0
KCA2 210251Z 03006KT 34/09 A2975 RMK A01 T03430086  RH  021%=      5-min Rain = 0
KCA2 210252Z 03006KT 34/09 A2975 RMK A01 T03420087  RH  021%=      5-min Rain = 0
KCA2 210253Z 04006KT 34/09 A2975 RMK A01 T03410085  RH  021%=      5-min Rain = 0
KCA2 210254Z 04005KT 34/09 A2976 RMK A01 T03410086  RH  021%=      5-min Rain = 0
KCA2 210255Z 04005KT 34/09 A2976 RMK A01 T03410087  RH  021%=      5-min Rain = 0
KCA2 210256Z 03005KT 34/09 A2976 RMK A01 T03400087  RH  021%=      5-min Rain = 0
KCA2 210257Z 03005KT 34/09 A2976 RMK A01 T03390088  RH  021%=      5-min Rain = 0
KCA2 210258Z 03005KT 34/09 A2976 RMK A01 T03390089  RH  022%=      5-min Rain = 0
KCA2 210259Z 03005KT 34/09 A2976 RMK A01 T03380090  RH  022%=      5-min Rain = 0
KCA2 210300Z 03005KT 34/09 A2976 RMK A01 T03370090  RH  022%=      5-min Rain = 0
KCA2 210301Z 04005KT 34/09 A2976 RMK A01 T03360092  RH  022%=      5-min Rain = 0
KCA2 210302Z 05005KT 34/09 A2976 RMK A01 T03350090  RH  022%=      5-min Rain = 0
KCA2 210303Z 05006KT 34/09 A2976 RMK A01 T03350086  RH  022%=      5-min Rain = 0
KCA2 210304Z 06006KT 34/09 A2976 RMK A01 T03370085  RH  021%=      5-min Rain = 0
KCA2 210305Z 06006KT 34/08 A2976 RMK A01 T03390083  RH  021%=      5-min Rain = 0
KCA2 210306Z 07006KT 34/08 A2976 RMK A01 T03400084  RH  021%=      5-min Rain = 0
KCA2 210307Z 07006KT 34/08 A2976 RMK A01 T03400084  RH  021%=      5-min Rain = 0
KCA2 210308Z 07006KT 34/09 A2976 RMK A01 T03400085  RH  021%=      5-min Rain = 0
KCA2 210309Z 06006KT 34/08 A2976 RMK A01 T03390083  RH  021%=      5-min Rain = 0
KCA2 210310Z 06005KT 34/08 A2976 RMK A01 T03400077  RH  020%=      5-min Rain = 0
KCA2 210311Z 05005KT 34/08 A2976 RMK A01 T03410077  RH  020%=      5-min Rain = 0
KCA2 210312Z 05005KT 34/08 A2976 RMK A01 T03420078  RH  020%=      5-min Rain = 0
KCA2 210313Z 05004KT 34/08 A2976 RMK A01 T03420082  RH  020%=      5-min Rain = 0
KCA2 210314Z 04004KT 34/08 A2976 RMK A01 T03420083  RH  020%=      5-min Rain = 0
KCA2 210315Z 04004KT 34/09 A2977 RMK A01 T03400085  RH  021%=      5-min Rain = 0
KCA2 210316Z 04004KT 34/09 A2977 RMK A01 T03380086  RH  021%=      5-min Rain = 0
KCA2 210317Z 04004KT 34/08 A2977 RMK A01 T03380083  RH  021%=      5-min Rain = 0
KCA2 210318Z 04004KT 34/08 A2977 RMK A01 T03380083  RH  021%=      5-min Rain = 0
KCA2 210319Z 05005KT 34/08 A2977 RMK A01 T03380083  RH  021%=      5-min Rain = 0
KCA2 210320Z 05004KT 34/08 A2977 RMK A01 T03380081  RH  020%=      5-min Rain = 0
KCA2 210321Z 06005KT 34/08 A2977 RMK A01 T03390079  RH  020%=      5-min Rain = 0
KCA2 210322Z 06005KT 34/08 A2977 RMK A01 T03390081  RH  020%=      5-min Rain = 0
KCA2 210323Z 06005KT 34/08 A2977 RMK A01 T03390081  RH  020%=      5-min Rain = 0
KCA2 210324Z 07006KT 34/08 A2977 RMK A01 T03390082  RH  021%=      5-min Rain = 0
KCA2 210325Z 08005KT 34/08 A2977 RMK A01 T03380080  RH  020%=      5-min Rain = 0
KCA2 210326Z 08005KT 34/08 A2977 RMK A01 T03380080  RH  020%=      5-min Rain = 0
KCA2 210327Z 08004KT 34/08 A2977 RMK A01 T03370081  RH  021%=      5-min Rain = 0
KCA2 210328Z 09004KT 34/08 A2977 RMK A01 T03360081  RH  021%=      5-min Rain = 0
KCA2 210329Z 11005KT 34/08 A2977 RMK A01 T03360081  RH  021%=      5-min Rain = 0
KCA2 210330Z 12006KT 34/08 A2977 RMK A01 T03350082  RH  021%=      5-min Rain = 0
KCA2 210331Z 11005KT 33/09 A2977 RMK A01 T03330086  RH  022%=      5-min Rain = 0
KCA2 210332Z 09005KT 33/08 A2977 RMK A01 T03310080  RH  021%=      5-min Rain = 0
KCA2 210333Z 08005KT 33/08 A2977 RMK A01 T03320079  RH  021%=      5-min Rain = 0
KCA2 210334Z 09004KT 34/08 A2977 RMK A01 T03350077  RH  020%=      5-min Rain = 0
KCA2 210335Z 10004KT 34/08 A2978 RMK A01 T03370077  RH  020%=      5-min Rain = 0
KCA2 210336Z 10003KT 34/08 A2978 RMK A01 T03380078  RH  020%=      5-min Rain = 0
KCA2 210337Z 12003KT 34/08 A2978 RMK A01 T03380080  RH  020%=      5-min Rain = 0
KCA2 210338Z 14002KT 34/08 A2978 RMK A01 T03370083  RH  021%=      5-min Rain = 0
KCA2 210339Z 18003KT 34/09 A2978 RMK A01 T03350087  RH  022%=      5-min Rain = 0
KCA2 210340Z 21006KT 33/10 A2978 RMK A01 T03290103  RH  025%=      5-min Rain = 0
KCA2 210341Z 21007KT 32/10 A2978 RMK A01 T03190104  RH  027%=      5-min Rain = 0
KCA2 210342Z 21007KT 31/10 A2978 RMK A01 T03130099  RH  027%=      5-min Rain = 0
KCA2 210343Z 21006KT 31/10 A2978 RMK A01 T03120097  RH  027%=      5-min Rain = 0
KCA2 210344Z 21006KT 31/10 A2978 RMK A01 T03110097  RH  027%=      5-min Rain = 0
KCA2 210345Z 20007KT 31/10 A2978 RMK A01 T03120097  RH  026%=      5-min Rain = 0
KCA2 210346Z 20006KT 31/10 A2978 RMK A01 T03140096  RH  026%=      5-min Rain = 0
KCA2 210347Z 21006KT 32/10 A2978 RMK A01 T03150098  RH  026%=      5-min Rain = 0
KCA2 210348Z 21005KT 32/10 A2978 RMK A01 T03150100  RH  027%=      5-min Rain = 0
KCA2 210349Z 20005KT 31/10 A2978 RMK A01 T03140100  RH  027%=      5-min Rain = 0
KCA2 210350Z 19006KT 31/10 A2978 RMK A01 T03130100  RH  027%=      5-min Rain = 0
KCA2 210351Z 18007KT 31/10 A2978 RMK A01 T03120100  RH  027%=      5-min Rain = 0
KCA2 210352Z 17006KT 31/10 A2978 RMK A01 T03120100  RH  027%=      5-min Rain = 0
KCA2 210353Z 17006KT 31/10 A2978 RMK A01 T03120100  RH  027%=      5-min Rain = 0
KCA2 210354Z 17007KT 31/10 A2978 RMK A01 T03120100  RH  027%=      5-min Rain = 0
KCA2 210355Z 16007KT 31/10 A2978 RMK A01 T03110098  RH  027%=      5-min Rain = 0
KCA2 210356Z 16007KT 31/10 A2978 RMK A01 T03110097  RH  027%=      5-min Rain = 0
KCA2 210357Z 15006KT 31/10 A2978 RMK A01 T03110098  RH  027%=      5-min Rain = 0
KCA2 210358Z 14006KT 31/10 A2978 RMK A01 T03110098  RH  027%=      5-min Rain = 0
KCA2 210359Z 14006KT 31/10 A2979 RMK A01 T03110102  RH  027%=      5-min Rain = 0
KCA2 210400Z 14006KT 31/10 A2979 RMK A01 T03100101  RH  027%=      5-min Rain = 0
KCA2 210401Z 14006KT 31/10 A2979 RMK A01 T03090100  RH  027%=      5-min Rain = 0
KCA2 210402Z 14006KT 31/10 A2979 RMK A01 T03090100  RH  027%=      5-min Rain = 0
KCA2 210403Z 14007KT 31/10 A2979 RMK A01 T03090099  RH  027%=      5-min Rain = 0
KCA2 210404Z 14007KT 31/10 A2979 RMK A01 T03090098  RH  027%=      5-min Rain = 0
KCA2 210405Z 14006KT 31/10 A2979 RMK A01 T03090098  RH  027%=      5-min Rain = 0
KCA2 210406Z 14006KT 31/10 A2979 RMK A01 T03100099  RH  027%=      5-min Rain = 0
KCA2 210407Z 14006KT 31/10 A2979 RMK A01 T03100099  RH  027%=      5-min Rain = 0
KCA2 210408Z 14006KT 31/10 A2979 RMK A01 T03090099  RH  027%=      5-min Rain = 0
KCA2 210409Z 14006KT 31/10 A2979 RMK A01 T03090098  RH  027%=      5-min Rain = 0
KCA2 210410Z 14006KT 31/10 A2979 RMK A01 T03100098  RH  027%=      5-min Rain = 0
KCA2 210411Z 14006KT 31/10 A2979 RMK A01 T03100098  RH  027%=      5-min Rain = 0
KCA2 210412Z 14006KT 31/10 A2979 RMK A01 T03100098  RH  027%=      5-min Rain = 0
KCA2 210413Z 14006KT 31/10 A2979 RMK A01 T03100099  RH  027%=      5-min Rain = 0
KCA2 210414Z 14007KT 31/10 A2979 RMK A01 T03100099  RH  027%=      5-min Rain = 0
KCA2 210415Z 13007KT 31/10 A2979 RMK A01 T03100099  RH  027%=      5-min Rain = 0
KCA2 210416Z 13006KT 31/10 A2979 RMK A01 T03090099  RH  027%=      5-min Rain = 0
KCA2 210417Z 13006KT 31/10 A2979 RMK A01 T03090099  RH  027%=      5-min Rain = 0
KCA2 210418Z 12005KT 31/10 A2979 RMK A01 T03090100  RH  028%=      5-min Rain = 0
KCA2 210419Z 12005KT 31/10 A2979 RMK A01 T03080100  RH  028%=      5-min Rain = 0
KCA2 210420Z 12006KT 31/10 A2979 RMK A01 T03080100  RH  028%=      5-min Rain = 0
KCA2 210421Z 13006KT 31/10 A2979 RMK A01 T03080100  RH  028%=      5-min Rain = 0
KCA2 210422Z 12005KT 31/10 A2979 RMK A01 T03090100  RH  027%=      5-min Rain = 0
KCA2 210423Z 12005KT 31/10 A2979 RMK A01 T03100099  RH  027%=      5-min Rain = 0
KCA2 210424Z 12006KT 31/10 A2979 RMK A01 T03110099  RH  027%=      5-min Rain = 0
KCA2 210425Z 13006KT 31/10 A2979 RMK A01 T03130098  RH  027%=      5-min Rain = 0
KCA2 210426Z 13006KT 32/10 A2979 RMK A01 T03160099  RH  026%=      5-min Rain = 0
KCA2 210427Z 13006KT 32/10 A2979 RMK A01 T03190099  RH  026%=      5-min Rain = 0
KCA2 210428Z 14006KT 32/10 A2979 RMK A01 T03200100  RH  026%=      5-min Rain = 0
KCA2 210429Z 14006KT 32/10 A2979 RMK A01 T03200101  RH  026%=      5-min Rain = 0
KCA2 210430Z 13005KT 32/10 A2979 RMK A01 T03200101  RH  026%=      5-min Rain = 0
KCA2 210431Z 13005KT 32/10 A2979 RMK A01 T03200101  RH  026%=      5-min Rain = 0
KCA2 210432Z 13005KT 32/10 A2979 RMK A01 T03200101  RH  026%=      5-min Rain = 0
KCA2 210433Z 13004KT 32/10 A2979 RMK A01 T03200101  RH  026%=      5-min Rain = 0
KCA2 210434Z 13004KT 32/10 A2979 RMK A01 T03200102  RH  026%=      5-min Rain = 0
KCA2 210435Z 12003KT 32/10 A2979 RMK A01 T03190102  RH  026%=      5-min Rain = 0
KCA2 210436Z 12003KT 32/10 A2979 RMK A01 T03190102  RH  026%=      5-min Rain = 0
KCA2 210437Z 12003KT 32/10 A2979 RMK A01 T03180103  RH  027%=      5-min Rain = 0
KCA2 210438Z 11003KT 32/10 A2979 RMK A01 T03170102  RH  027%=      5-min Rain = 0
KCA2 210439Z 11003KT 32/10 A2979 RMK A01 T03170103  RH  027%=      5-min Rain = 0
KCA2 210440Z 11003KT 32/10 A2979 RMK A01 T03160102  RH  027%=      5-min Rain = 0
KCA2 210441Z 11004KT 32/10 A298 RMK A01 T03170101  RH  027%=      5-min Rain = 0
KCA2 210442Z 12004KT 32/10 A298 RMK A01 T03180101  RH  026%=      5-min Rain = 0
KCA2 210443Z 13004KT 32/10 A298 RMK A01 T03190102  RH  026%=      5-min Rain = 0
KCA2 210444Z 13004KT 32/10 A298 RMK A01 T03190103  RH  027%=      5-min Rain = 0
KCA2 210445Z 13004KT 32/10 A298 RMK A01 T03190104  RH  027%=      5-min Rain = 0
KCA2 210446Z 13004KT 32/10 A298 RMK A01 T03180104  RH  027%=      5-min Rain = 0
KCA2 210447Z 12004KT 32/10 A298 RMK A01 T03180104  RH  027%=      5-min Rain = 0
KCA2 210448Z 12004KT 32/11 A298 RMK A01 T03180105  RH  027%=      5-min Rain = 0
KCA2 210449Z 12005KT 32/11 A298 RMK A01 T03170105  RH  027%=      5-min Rain = 0
KCA2 210450Z 12005KT 32/11 A298 RMK A01 T03170105  RH  027%=      5-min Rain = 0
KCA2 210451Z 12005KT 32/10 A298 RMK A01 T03170104  RH  027%=      5-min Rain = 0
KCA2 210452Z 12005KT 32/10 A298 RMK A01 T03180104  RH  027%=      5-min Rain = 0
KCA2 210453Z 12004KT 32/10 A298 RMK A01 T03190104  RH  027%=      5-min Rain = 0
KCA2 210454Z 12004KT 32/11 A298 RMK A01 T03190105  RH  027%=      5-min Rain = 0
KCA2 210455Z 13005KT 32/10 A298 RMK A01 T03190104  RH  027%=      5-min Rain = 0
KCA2 210456Z 13005KT 32/11 A298 RMK A01 T03200105  RH  027%=      5-min Rain = 0
KCA2 210457Z 14005KT 32/11 A298 RMK A01 T03200105  RH  027%=      5-min Rain = 0
KCA2 210458Z 14005KT 32/11 A298 RMK A01 T03200105  RH  027%=      5-min Rain = 0
KCA2 210459Z 14005KT 32/11 A298 RMK A01 T03190105  RH  027%=      5-min Rain = 0

Page generated in 0.0823 seconds.